Time,TemperatureF,DewpointF,PressureIn,WindDirection,WindDirectionDegrees,WindSpeedMPH,WindSpeedGustMPH,Humidity,HourlyPrecipIn,Conditions,Clouds,dailyrainin,SoftwareType,DateUTC
2013-10-04 00:00:00,61.2,60.3,25.25,SSE,152,0.0,0.0,97,0.00,,---,0.00,VWS V14.01,2013-10-04 06:00:00,
2013-10-04 00:01:00,61.2,60.3,25.25,SSE,152,0.0,0.0,97,0.00,,---,0.00,VWS V14.01,2013-10-04 06:01:00,
2013-10-04 00:02:00,61.2,60.3,25.25,SSE,152,0.0,0.0,97,0.00,,---,0.00,VWS V14.01,2013-10-04 06:02:00,
2013-10-04 00:04:00,61.0,60.1,25.25,SSE,152,0.0,2.7,97,0.00,,---,0.00,VWS V14.01,2013-10-04 06:04:00,
2013-10-04 00:06:00,61.0,60.1,25.25,SSE,152,2.7,2.7,97,0.00,,---,0.00,VWS V14.01,2013-10-04 06:06:00,
2013-10-04 00:07:00,61.0,60.1,25.25,SSE,152,3.1,3.1,97,0.00,,---,0.00,VWS V14.01,2013-10-04 06:07:00,
2013-10-04 00:08:00,61.0,60.1,25.25,SSE,153,0.0,3.1,97,0.00,,---,0.00,VWS V14.01,2013-10-04 06:08:00,
2013-10-04 00:09:00,60.8,60.0,25.25,SSE,153,0.0,0.0,97,0.00,,---,0.00,VWS V14.01,2013-10-04 06:09:00,
2013-10-04 00:12:00,60.8,60.0,25.25,SSE,153,3.1,3.1,97,0.00,,---,0.00,VWS V14.01,2013-10-04 06:12:00,
2013-10-04 00:13:00,60.8,60.0,25.25,SSE,153,3.1,3.1,97,0.00,,---,0.00,VWS V14.01,2013-10-04 06:13:00,
2013-10-04 00:14:00,60.8,60.0,25.25,SSE,159,0.0,3.1,97,0.00,,---,0.00,VWS V14.01,2013-10-04 06:14:00,
2013-10-04 00:15:00,60.8,60.0,25.25,SSE,159,2.7,2.7,97,0.00,,---,0.00,VWS V14.01,2013-10-04 06:15:00,
2013-10-04 00:16:00,60.8,60.0,25.25,SSE,159,0.0,2.7,97,0.00,,---,0.00,VWS V14.01,2013-10-04 06:16:00,
2013-10-04 00:20:00,60.8,60.0,25.22,SSE,159,0.0,0.0,97,0.00,,---,0.00,VWS V14.01,2013-10-04 06:20:00,
2013-10-04 00:22:00,60.8,60.0,25.22,SSE,159,0.0,0.0,97,0.00,,---,0.00,VWS V14.01,2013-10-04 06:22:00,
2013-10-04 00:23:00,60.8,60.0,25.22,SSE,159,0.0,0.0,97,0.00,,---,0.00,VWS V14.01,2013-10-04 06:23:00,
2013-10-04 00:24:00,60.8,60.2,25.22,SSE,159,0.0,0.0,98,0.00,,---,0.00,VWS V14.01,2013-10-04 06:24:00,
2013-10-04 00:28:00,60.8,60.2,25.22,SSE,165,2.7,3.1,98,0.00,,---,0.00,VWS V14.01,2013-10-04 06:28:00,
2013-10-04 00:29:00,60.8,60.2,25.22,SSE,165,2.2,2.7,98,0.00,,---,0.00,VWS V14.01,2013-10-04 06:29:00,
2013-10-04 00:30:00,60.8,60.2,25.22,SSE,165,0.0,2.2,98,0.00,,---,0.00,VWS V14.01,2013-10-04 06:30:00,
2013-10-04 00:34:00,61.0,60.4,25.22,SSE,165,0.0,3.1,98,0.00,,---,0.00,VWS V14.01,2013-10-04 06:34:00,
2013-10-04 00:35:00,61.0,60.4,25.22,SSE,165,0.0,0.0,98,0.00,,---,0.00,VWS V14.01,2013-10-04 06:35:00,
2013-10-04 00:37:00,61.0,60.4,25.22,SSE,165,0.0,2.7,98,0.00,,---,0.00,VWS V14.01,2013-10-04 06:37:00,
2013-10-04 00:39:00,61.0,60.4,25.22,SSE,165,2.2,2.2,98,0.00,,---,0.00,VWS V14.01,2013-10-04 06:39:00,
2013-10-04 00:40:00,61.0,60.4,25.22,SSE,165,0.0,2.2,98,0.00,,---,0.00,VWS V14.01,2013-10-04 06:40:00,
2013-10-04 00:41:00,61.0,60.4,25.22,SSE,165,2.7,2.7,98,0.00,,---,0.00,VWS V14.01,2013-10-04 06:41:00,
2013-10-04 00:42:00,61.0,60.4,25.22,South,178,3.1,3.1,98,0.00,,---,0.00,VWS V14.01,2013-10-04 06:42:00,
2013-10-04 00:43:00,61.0,60.4,25.22,South,179,2.7,3.1,98,0.00,,---,0.00,VWS V14.01,2013-10-04 06:43:00,
2013-10-04 00:46:00,61.2,60.6,25.22,South,180,0.0,3.1,98,0.00,,---,0.00,VWS V14.01,2013-10-04 06:46:00,
2013-10-04 00:48:00,61.3,60.8,25.22,SW,217,2.7,2.7,98,0.00,,---,0.00,VWS V14.01,2013-10-04 06:48:00,
2013-10-04 00:49:00,61.3,60.8,25.22,SSW,193,2.7,2.7,98,0.00,,---,0.00,VWS V14.01,2013-10-04 06:49:00,
2013-10-04 00:50:00,61.3,60.5,25.22,SSW,192,0.0,2.7,97,0.00,,---,0.00,VWS V14.01,2013-10-04 06:50:00,
2013-10-04 00:55:00,61.3,60.5,25.22,SSW,192,0.0,2.7,97,0.00,,---,0.00,VWS V14.01,2013-10-04 06:55:00,
2013-10-04 00:56:00,61.3,60.5,25.22,SSW,192,0.0,0.0,97,0.00,,---,0.00,VWS V14.01,2013-10-04 06:56:00,
2013-10-04 00:57:00,61.3,60.5,25.22,SSW,192,0.0,0.0,97,0.00,,---,0.00,VWS V14.01,2013-10-04 06:57:00,
2013-10-04 00:58:00,61.3,60.5,25.22,SSW,192,0.0,2.2,97,0.00,,---,0.00,VWS V14.01,2013-10-04 06:58:00,
2013-10-04 00:59:00,61.3,60.5,25.22,SSW,192,0.0,0.0,97,0.00,,---,0.00,VWS V14.01,2013-10-04 06:59:00,
2013-10-04 01:01:00,61.3,60.5,25.22,SSW,192,2.2,2.2,97,0.00,,---,0.00,VWS V14.01,2013-10-04 07:01:00,
2013-10-04 01:05:00,61.5,60.7,25.22,SSW,192,2.2,2.2,97,0.00,,---,0.00,VWS V14.01,2013-10-04 07:05:00,
2013-10-04 01:07:00,61.3,60.2,25.22,SSW,192,2.7,2.7,96,0.00,,---,0.00,VWS V14.01,2013-10-04 07:07:00,
2013-10-04 01:09:00,61.5,60.4,25.22,SSW,192,0.0,0.0,96,0.00,,---,0.00,VWS V14.01,2013-10-04 07:09:00,
2013-10-04 01:10:00,61.3,59.9,25.22,SSW,192,4.0,4.0,95,0.00,,---,0.00,VWS V14.01,2013-10-04 07:10:00,
2013-10-04 01:13:00,61.5,59.8,25.22,South,189,2.7,3.6,94,0.00,,---,0.00,VWS V14.01,2013-10-04 07:13:00,
2013-10-04 01:15:00,61.5,59.8,25.22,South,182,2.2,2.2,94,0.00,,---,0.00,VWS V14.01,2013-10-04 07:15:00,
2013-10-04 01:16:00,61.3,59.3,25.22,South,182,2.2,2.7,93,0.00,,---,0.00,VWS V14.01,2013-10-04 07:16:00,
2013-10-04 01:19:00,61.5,58.9,25.22,South,182,2.2,2.2,91,0.00,,---,0.00,VWS V14.01,2013-10-04 07:19:00,
2013-10-04 01:21:00,61.5,58.6,25.19,South,182,2.7,2.7,90,0.00,,---,0.00,VWS V14.01,2013-10-04 07:21:00,
2013-10-04 01:24:00,61.9,58.9,25.19,South,182,2.7,2.7,90,0.00,,---,0.00,VWS V14.01,2013-10-04 07:24:00,
2013-10-04 01:26:00,61.9,58.6,25.19,South,182,2.7,2.7,89,0.00,,---,0.00,VWS V14.01,2013-10-04 07:26:00,
2013-10-04 01:27:00,61.9,58.6,25.19,South,182,0.0,2.7,89,0.00,,---,0.00,VWS V14.01,2013-10-04 07:27:00,
2013-10-04 01:28:00,61.9,58.9,25.19,South,182,0.0,0.0,90,0.00,,---,0.00,VWS V14.01,2013-10-04 07:28:00,
2013-10-04 01:29:00,61.9,58.9,25.19,South,182,2.7,2.7,90,0.00,,---,0.00,VWS V14.01,2013-10-04 07:29:00,
2013-10-04 01:30:00,61.7,58.4,25.19,South,182,2.2,2.7,89,0.00,,---,0.00,VWS V14.01,2013-10-04 07:30:00,
2013-10-04 01:33:00,61.5,56.3,25.19,South,183,2.7,3.1,83,0.00,,---,0.00,VWS V14.01,2013-10-04 07:33:00,
2013-10-04 01:34:00,61.5,56.3,25.19,South,183,2.7,3.1,83,0.00,,---,0.00,VWS V14.01,2013-10-04 07:34:00,
2013-10-04 01:35:00,61.7,55.1,25.19,South,183,2.7,2.7,79,0.00,,---,0.00,VWS V14.01,2013-10-04 07:35:00,
2013-10-04 01:36:00,61.9,54.2,25.19,South,183,0.0,2.7,76,0.00,,---,0.00,VWS V14.01,2013-10-04 07:36:00,
2013-10-04 01:37:00,61.9,54.2,25.19,South,183,0.0,0.0,76,0.00,,---,0.00,VWS V14.01,2013-10-04 07:37:00,
2013-10-04 01:39:00,62.1,54.8,25.19,South,183,0.0,0.0,77,0.00,,---,0.00,VWS V14.01,2013-10-04 07:39:00,
2013-10-04 01:42:00,61.9,53.1,25.19,South,188,2.7,3.1,73,0.00,,---,0.00,VWS V14.01,2013-10-04 07:42:00,
2013-10-04 01:43:00,61.9,53.5,25.19,South,173,0.0,3.1,74,0.00,,---,0.00,VWS V14.01,2013-10-04 07:43:00,
2013-10-04 01:44:00,61.9,53.5,25.19,South,173,3.6,3.6,74,0.00,,---,0.00,VWS V14.01,2013-10-04 07:44:00,
2013-10-04 01:46:00,61.9,52.0,25.19,South,174,2.7,3.1,70,0.00,,---,0.00,VWS V14.01,2013-10-04 07:46:00,
2013-10-04 01:49:00,62.2,51.2,25.19,South,173,0.0,3.6,67,0.00,,---,0.00,VWS V14.01,2013-10-04 07:49:00,
2013-10-04 01:51:00,62.2,51.2,25.19,South,173,2.7,2.7,67,0.00,,---,0.00,VWS V14.01,2013-10-04 07:51:00,
2013-10-04 01:54:00,62.2,50.3,25.19,South,173,2.7,2.7,65,0.00,,---,0.00,VWS V14.01,2013-10-04 07:54:00,
2013-10-04 01:56:00,62.2,50.3,25.19,South,173,2.7,2.7,65,0.00,,---,0.00,VWS V14.01,2013-10-04 07:56:00,
2013-10-04 02:01:00,62.2,51.2,25.19,South,173,3.6,4.0,67,0.00,,---,0.00,VWS V14.01,2013-10-04 08:01:00,
2013-10-04 02:02:00,62.2,51.2,25.19,South,173,3.1,3.6,67,0.00,,---,0.00,VWS V14.01,2013-10-04 08:02:00,
2013-10-04 02:03:00,62.2,50.8,25.19,South,173,2.7,3.1,66,0.00,,---,0.00,VWS V14.01,2013-10-04 08:03:00,
2013-10-04 02:06:00,62.2,49.5,25.19,South,179,2.7,3.6,63,0.00,,---,0.00,VWS V14.01,2013-10-04 08:06:00,
2013-10-04 02:07:00,62.4,50.1,25.19,South,179,2.7,3.6,64,0.00,,---,0.00,VWS V14.01,2013-10-04 08:07:00,
2013-10-04 02:08:00,62.2,50.3,25.19,South,177,3.6,3.6,65,0.00,,---,0.00,VWS V14.01,2013-10-04 08:08:00,
2013-10-04 02:09:00,62.2,50.8,25.19,South,184,3.1,3.6,66,0.00,,---,0.00,VWS V14.01,2013-10-04 08:09:00,
2013-10-04 02:12:00,62.2,50.8,25.19,South,170,3.1,3.1,66,0.00,,---,0.00,VWS V14.01,2013-10-04 08:12:00,
2013-10-04 02:14:00,62.1,50.6,25.19,South,169,3.1,3.1,66,0.00,,---,0.00,VWS V14.01,2013-10-04 08:14:00,
2013-10-04 02:15:00,62.1,51.0,25.19,South,170,3.1,3.1,67,0.00,,---,0.00,VWS V14.01,2013-10-04 08:15:00,
2013-10-04 02:17:00,61.9,51.2,25.19,SSW,201,4.0,5.4,68,0.00,,---,0.00,VWS V14.01,2013-10-04 08:17:00,
2013-10-04 02:18:00,61.9,51.2,25.19,SSW,199,2.7,4.0,68,0.00,,---,0.00,VWS V14.01,2013-10-04 08:18:00,
2013-10-04 02:22:00,61.9,51.6,25.19,SSW,199,2.2,2.2,69,0.00,,---,0.00,VWS V14.01,2013-10-04 08:22:00,
2013-10-04 02:26:00,61.9,51.6,25.19,SSW,193,2.7,4.0,69,0.00,,---,0.00,VWS V14.01,2013-10-04 08:26:00,
2013-10-04 02:28:00,61.9,51.6,25.19,SSW,193,2.7,2.7,69,0.00,,---,0.00,VWS V14.01,2013-10-04 08:28:00,
2013-10-04 02:31:00,61.7,51.4,25.19,SSW,193,2.2,2.2,69,0.00,,---,0.00,VWS V14.01,2013-10-04 08:31:00,
2013-10-04 02:32:00,61.7,51.4,25.19,SSW,193,2.2,2.2,69,0.00,,---,0.00,VWS V14.01,2013-10-04 08:32:00,
2013-10-04 02:33:00,61.7,51.4,25.19,SSW,193,3.1,3.6,69,0.00,,---,0.00,VWS V14.01,2013-10-04 08:33:00,
2013-10-04 02:34:00,61.7,51.4,25.19,SSW,193,2.2,3.1,69,0.00,,---,0.00,VWS V14.01,2013-10-04 08:34:00,
2013-10-04 02:36:00,61.7,51.4,25.19,SSW,193,0.0,2.2,69,0.00,,---,0.00,VWS V14.01,2013-10-04 08:36:00,
2013-10-04 02:38:00,61.9,51.6,25.19,SSW,193,0.0,0.0,69,0.00,,---,0.00,VWS V14.01,2013-10-04 08:38:00,
2013-10-04 02:39:00,61.9,51.6,25.19,SSW,193,0.0,0.0,69,0.00,,---,0.00,VWS V14.01,2013-10-04 08:39:00,
2013-10-04 02:41:00,61.9,52.0,25.19,SSW,193,2.2,2.7,70,0.00,,---,0.00,VWS V14.01,2013-10-04 08:41:00,
2013-10-04 02:42:00,61.9,52.0,25.19,SSW,193,0.0,2.2,70,0.00,,---,0.00,VWS V14.01,2013-10-04 08:42:00,
2013-10-04 02:44:00,61.9,52.0,25.19,SSW,193,2.2,2.7,70,0.00,,---,0.00,VWS V14.01,2013-10-04 08:44:00,
2013-10-04 02:46:00,61.9,52.0,25.19,SSW,193,2.2,2.2,70,0.00,,---,0.00,VWS V14.01,2013-10-04 08:46:00,
2013-10-04 02:47:00,61.9,52.0,25.19,SSW,193,0.0,2.2,70,0.00,,---,0.00,VWS V14.01,2013-10-04 08:47:00,
2013-10-04 02:49:00,61.9,52.0,25.19,SSW,193,2.7,2.7,70,0.00,,---,0.00,VWS V14.01,2013-10-04 08:49:00,
2013-10-04 02:52:00,61.7,52.2,25.19,South,191,2.7,4.0,71,0.00,,---,0.00,VWS V14.01,2013-10-04 08:52:00,
2013-10-04 02:54:00,61.7,51.8,25.19,SE,125,2.2,3.6,70,0.00,,---,0.00,VWS V14.01,2013-10-04 08:54:00,
2013-10-04 02:56:00,61.9,52.0,25.19,SSW,211,2.2,2.7,70,0.00,,---,0.00,VWS V14.01,2013-10-04 08:56:00,
2013-10-04 02:57:00,62.2,52.3,25.19,SSE,158,3.6,3.6,70,0.00,,---,0.00,VWS V14.01,2013-10-04 08:57:00,
2013-10-04 02:58:00,62.2,52.3,25.19,SE,141,2.2,3.6,70,0.00,,---,0.00,VWS V14.01,2013-10-04 08:58:00,
2013-10-04 03:02:00,62.4,52.9,25.19,SSE,155,3.1,3.1,71,0.00,,---,0.00,VWS V14.01,2013-10-04 09:02:00,
2013-10-04 03:04:00,62.4,52.9,25.19,SSW,195,2.7,4.0,71,0.00,,---,0.00,VWS V14.01,2013-10-04 09:04:00,
2013-10-04 03:08:00,62.6,52.7,25.19,SSW,199,0.0,2.2,70,0.00,,---,0.00,VWS V14.01,2013-10-04 09:08:00,
2013-10-04 03:10:00,62.6,53.1,25.19,SSW,199,0.0,0.0,71,0.00,,---,0.00,VWS V14.01,2013-10-04 09:10:00,
2013-10-04 03:11:00,62.6,53.1,25.19,SSW,199,2.2,3.1,71,0.00,,---,0.00,VWS V14.01,2013-10-04 09:11:00,
2013-10-04 03:14:00,62.6,53.1,25.19,SE,138,2.7,3.1,71,0.00,,---,0.00,VWS V14.01,2013-10-04 09:14:00,
2013-10-04 03:15:00,62.6,53.1,25.19,SE,140,0.0,3.1,71,0.00,,---,0.00,VWS V14.01,2013-10-04 09:15:00,
2013-10-04 03:19:00,62.4,53.3,25.19,South,183,2.2,3.1,72,0.00,,---,0.00,VWS V14.01,2013-10-04 09:19:00,
2013-10-04 03:20:00,62.4,53.3,25.19,South,183,2.2,2.7,72,0.00,,---,0.00,VWS V14.01,2013-10-04 09:20:00,
2013-10-04 03:21:00,62.4,53.3,25.19,South,183,2.2,2.2,72,0.00,,---,0.00,VWS V14.01,2013-10-04 09:21:00,
2013-10-04 03:23:00,62.6,53.1,25.19,South,185,3.1,3.1,71,0.00,,---,0.00,VWS V14.01,2013-10-04 09:23:00,
2013-10-04 03:25:00,62.6,52.7,25.19,South,185,2.2,2.7,70,0.00,,---,0.00,VWS V14.01,2013-10-04 09:25:00,
2013-10-04 03:26:00,62.8,52.9,25.19,SSW,204,0.0,2.7,70,0.00,,---,0.00,VWS V14.01,2013-10-04 09:26:00,
2013-10-04 03:27:00,63.0,53.0,25.19,SSW,204,2.2,2.2,70,0.00,,---,0.00,VWS V14.01,2013-10-04 09:27:00,
2013-10-04 03:30:00,63.0,53.0,25.19,SSW,204,2.7,3.1,70,0.00,,---,0.00,VWS V14.01,2013-10-04 09:30:00,
2013-10-04 03:33:00,63.0,53.0,25.19,SSW,197,2.2,3.1,70,0.00,,---,0.00,VWS V14.01,2013-10-04 09:33:00,
2013-10-04 03:35:00,62.6,53.1,25.19,SSW,196,0.0,2.7,71,0.00,,---,0.00,VWS V14.01,2013-10-04 09:35:00,
2013-10-04 03:37:00,62.4,52.9,25.19,SSW,192,0.0,3.1,71,0.00,,---,0.00,VWS V14.01,2013-10-04 09:37:00,
2013-10-04 03:38:00,62.4,53.3,25.19,SSW,192,2.7,2.7,72,0.00,,---,0.00,VWS V14.01,2013-10-04 09:38:00,
2013-10-04 03:39:00,62.2,53.1,25.19,SSW,192,0.0,2.7,72,0.00,,---,0.00,VWS V14.01,2013-10-04 09:39:00,
2013-10-04 03:41:00,62.1,53.3,25.19,South,188,2.2,3.6,73,0.00,,---,0.00,VWS V14.01,2013-10-04 09:41:00,
2013-10-04 03:42:00,62.1,53.3,25.19,South,187,0.0,2.7,73,0.00,,---,0.00,VWS V14.01,2013-10-04 09:42:00,
2013-10-04 03:47:00,61.9,54.2,25.19,East,97,4.0,4.0,76,0.00,,---,0.00,VWS V14.01,2013-10-04 09:47:00,
2013-10-04 03:48:00,61.9,54.6,25.19,SSE,150,5.4,5.4,77,0.00,,---,0.00,VWS V14.01,2013-10-04 09:48:00,
2013-10-04 03:49:00,61.9,54.6,25.19,SE,135,3.6,5.4,77,0.00,,---,0.00,VWS V14.01,2013-10-04 09:49:00,
2013-10-04 03:52:00,61.9,55.3,25.19,SSE,157,2.2,3.1,79,0.00,,---,0.00,VWS V14.01,2013-10-04 09:52:00,
2013-10-04 03:53:00,62.1,55.5,25.19,SSE,157,2.7,2.7,79,0.00,,---,0.00,VWS V14.01,2013-10-04 09:53:00,
2013-10-04 03:55:00,62.1,55.5,25.19,SSE,152,0.0,0.0,79,0.00,,---,0.00,VWS V14.01,2013-10-04 09:55:00,
2013-10-04 03:56:00,62.2,55.7,25.19,SSE,152,0.0,0.0,79,0.00,,---,0.00,VWS V14.01,2013-10-04 09:56:00,
2013-10-04 03:57:00,62.2,55.7,25.19,SSE,152,0.0,0.0,79,0.00,,---,0.00,VWS V14.01,2013-10-04 09:57:00,
2013-10-04 04:00:00,62.2,55.7,25.19,SSE,152,0.0,0.0,79,0.00,,---,0.00,VWS V14.01,2013-10-04 10:00:00,
2013-10-04 04:01:00,62.1,55.5,25.19,SSE,152,0.0,0.0,79,0.00,,---,0.00,VWS V14.01,2013-10-04 10:01:00,
2013-10-04 04:02:00,62.1,55.5,25.19,SSE,152,0.0,0.0,79,0.00,,---,0.00,VWS V14.01,2013-10-04 10:02:00,
2013-10-04 04:05:00,62.1,55.5,25.19,ESE,104,0.0,2.2,79,0.00,,---,0.00,VWS V14.01,2013-10-04 10:05:00,
2013-10-04 04:08:00,62.1,55.5,25.19,ESE,104,0.0,0.0,79,0.00,,---,0.00,VWS V14.01,2013-10-04 10:08:00,
2013-10-04 04:09:00,62.1,55.5,25.19,ESE,104,0.0,0.0,79,0.00,,---,0.00,VWS V14.01,2013-10-04 10:09:00,
2013-10-04 04:11:00,61.9,55.3,25.19,ESE,104,0.0,0.0,79,0.00,,---,0.00,VWS V14.01,2013-10-04 10:11:00,
2013-10-04 04:12:00,61.9,55.3,25.19,ESE,104,0.0,0.0,79,0.00,,---,0.00,VWS V14.01,2013-10-04 10:12:00,
2013-10-04 04:15:00,61.7,55.1,25.19,SE,138,2.7,3.1,79,0.00,,---,0.00,VWS V14.01,2013-10-04 10:15:00,
2013-10-04 04:20:00,61.3,55.1,25.19,SSE,152,0.0,0.0,80,0.00,,---,0.00,VWS V14.01,2013-10-04 10:20:00,
2013-10-04 04:21:00,61.3,55.1,25.19,SSE,152,0.0,0.0,80,0.00,,---,0.00,VWS V14.01,2013-10-04 10:21:00,
2013-10-04 04:25:00,61.2,55.0,25.19,SSE,152,0.0,0.0,80,0.00,,---,0.00,VWS V14.01,2013-10-04 10:25:00,
2013-10-04 04:26:00,61.2,55.0,25.19,SSE,152,0.0,0.0,80,0.00,,---,0.00,VWS V14.01,2013-10-04 10:26:00,
2013-10-04 04:27:00,61.0,54.8,25.19,SSE,152,0.0,2.2,80,0.00,,---,0.00,VWS V14.01,2013-10-04 10:27:00,
2013-10-04 04:29:00,61.0,54.8,25.19,SSE,152,0.0,3.1,80,0.00,,---,0.00,VWS V14.01,2013-10-04 10:29:00,
2013-10-04 04:30:00,61.0,55.1,25.19,SSE,152,0.0,0.0,81,0.00,,---,0.00,VWS V14.01,2013-10-04 10:30:00,
2013-10-04 04:31:00,60.8,54.9,25.19,SSE,152,2.2,2.2,81,0.00,,---,0.00,VWS V14.01,2013-10-04 10:31:00,
2013-10-04 04:32:00,60.8,54.9,25.19,SSE,152,3.1,3.1,81,0.00,,---,0.00,VWS V14.01,2013-10-04 10:32:00,
2013-10-04 04:36:00,61.0,55.5,25.19,SSE,152,0.0,2.2,82,0.00,,---,0.00,VWS V14.01,2013-10-04 10:36:00,
2013-10-04 04:37:00,61.0,55.8,25.22,SSE,152,2.2,2.2,83,0.00,,---,0.00,VWS V14.01,2013-10-04 10:37:00,
2013-10-04 04:39:00,61.0,55.8,25.22,SSE,151,0.0,2.7,83,0.00,,---,0.00,VWS V14.01,2013-10-04 10:39:00,
2013-10-04 04:40:00,61.0,56.1,25.22,SSE,151,0.0,0.0,84,0.00,,---,0.00,VWS V14.01,2013-10-04 10:40:00,
2013-10-04 04:41:00,61.0,56.1,25.22,SSE,151,0.0,0.0,84,0.00,,---,0.00,VWS V14.01,2013-10-04 10:41:00,
2013-10-04 04:42:00,61.0,56.1,25.22,SSE,151,0.0,0.0,84,0.00,,---,0.00,VWS V14.01,2013-10-04 10:42:00,
2013-10-04 04:45:00,61.2,56.6,25.22,SSE,151,0.0,0.0,85,0.00,,---,0.00,VWS V14.01,2013-10-04 10:45:00,
2013-10-04 04:46:00,61.2,56.6,25.22,SSE,151,0.0,0.0,85,0.00,,---,0.00,VWS V14.01,2013-10-04 10:46:00,
2013-10-04 04:47:00,61.2,56.6,25.22,SSE,151,0.0,0.0,85,0.00,,---,0.00,VWS V14.01,2013-10-04 10:47:00,
2013-10-04 04:48:00,61.2,56.6,25.22,SSE,151,0.0,0.0,85,0.00,,---,0.00,VWS V14.01,2013-10-04 10:48:00,
2013-10-04 04:49:00,61.2,56.6,25.22,SSE,151,0.0,0.0,85,0.00,,---,0.00,VWS V14.01,2013-10-04 10:49:00,
2013-10-04 04:50:00,61.2,57.0,25.22,SSE,151,0.0,0.0,86,0.00,,---,0.00,VWS V14.01,2013-10-04 10:50:00,
2013-10-04 04:52:00,61.2,57.0,25.22,SSE,151,0.0,0.0,86,0.00,,---,0.00,VWS V14.01,2013-10-04 10:52:00,
2013-10-04 04:54:00,61.3,57.1,25.22,SSE,151,0.0,0.0,86,0.00,,---,0.00,VWS V14.01,2013-10-04 10:54:00,
2013-10-04 04:56:00,61.3,57.4,25.22,SSE,151,0.0,0.0,87,0.00,,---,0.00,VWS V14.01,2013-10-04 10:56:00,
2013-10-04 04:57:00,61.3,57.4,25.22,SSE,151,3.1,3.1,87,0.00,,---,0.00,VWS V14.01,2013-10-04 10:57:00,
2013-10-04 05:00:00,61.3,57.4,25.22,SSE,151,0.0,0.0,87,0.00,,---,0.00,VWS V14.01,2013-10-04 11:00:00,
2013-10-04 05:01:00,61.3,57.4,25.22,SSE,151,0.0,0.0,87,0.00,,---,0.00,VWS V14.01,2013-10-04 11:01:00,
2013-10-04 05:02:00,61.3,57.4,25.22,SSE,151,0.0,0.0,87,0.00,,---,0.00,VWS V14.01,2013-10-04 11:02:00,
2013-10-04 05:05:00,61.5,58.2,25.22,SE,135,2.7,4.0,89,0.00,,---,0.00,VWS V14.01,2013-10-04 11:05:00,
2013-10-04 05:06:00,61.5,58.2,25.22,SE,135,0.0,2.7,89,0.00,,---,0.00,VWS V14.01,2013-10-04 11:06:00,
2013-10-04 05:10:00,61.5,58.2,25.22,SE,143,3.1,3.1,89,0.00,,---,0.00,VWS V14.01,2013-10-04 11:10:00,
2013-10-04 05:11:00,61.5,58.2,25.22,SE,143,3.1,3.1,89,0.00,,---,0.00,VWS V14.01,2013-10-04 11:11:00,
2013-10-04 05:13:00,61.5,58.2,25.22,ESE,113,2.7,2.7,89,0.00,,---,0.00,VWS V14.01,2013-10-04 11:13:00,
2013-10-04 05:14:00,61.5,58.6,25.22,ESE,113,2.7,2.7,90,0.00,,---,0.00,VWS V14.01,2013-10-04 11:14:00,
2013-10-04 05:16:00,61.5,58.6,25.22,ESE,113,0.0,2.2,90,0.00,,---,0.00,VWS V14.01,2013-10-04 11:16:00,
2013-10-04 05:17:00,61.5,58.6,25.22,ESE,113,0.0,0.0,90,0.00,,---,0.00,VWS V14.01,2013-10-04 11:17:00,
2013-10-04 05:22:00,61.5,58.6,25.22,East,80,0.0,2.2,90,0.00,,---,0.00,VWS V14.01,2013-10-04 11:22:00,
2013-10-04 05:23:00,61.5,58.6,25.22,East,80,0.0,0.0,90,0.00,,---,0.00,VWS V14.01,2013-10-04 11:23:00,
2013-10-04 05:25:00,61.5,58.6,25.22,ESE,107,2.2,3.1,90,0.00,,---,0.00,VWS V14.01,2013-10-04 11:25:00,
2013-10-04 05:28:00,61.5,58.6,25.22,East,96,0.0,0.0,90,0.00,,---,0.00,VWS V14.01,2013-10-04 11:28:00,
2013-10-04 05:29:00,61.5,58.6,25.22,East,96,0.0,0.0,90,0.00,,---,0.00,VWS V14.01,2013-10-04 11:29:00,
2013-10-04 05:32:00,61.5,58.6,25.22,East,99,0.0,3.6,90,0.00,,---,0.00,VWS V14.01,2013-10-04 11:32:00,
2013-10-04 05:33:00,61.5,58.6,25.22,East,99,0.0,0.0,90,0.00,,---,0.00,VWS V14.01,2013-10-04 11:33:00,
2013-10-04 05:36:00,61.5,58.6,25.22,SSE,159,0.0,0.0,90,0.00,,---,0.00,VWS V14.01,2013-10-04 11:36:00,
2013-10-04 05:37:00,61.5,58.6,25.22,SSE,159,0.0,0.0,90,0.00,,---,0.00,VWS V14.01,2013-10-04 11:37:00,
2013-10-04 05:41:00,61.5,58.6,25.22,SE,131,2.2,3.1,90,0.00,,---,0.00,VWS V14.01,2013-10-04 11:41:00,
2013-10-04 05:42:00,61.5,58.6,25.22,SE,131,2.2,2.2,90,0.00,,---,0.00,VWS V14.01,2013-10-04 11:42:00,
2013-10-04 05:43:00,61.5,58.6,25.22,SE,131,0.0,2.2,90,0.00,,---,0.00,VWS V14.01,2013-10-04 11:43:00,
2013-10-04 05:47:00,61.5,58.6,25.22,SE,131,0.0,0.0,90,0.00,,---,0.00,VWS V14.01,2013-10-04 11:47:00,
2013-10-04 05:48:00,61.5,58.6,25.22,SE,131,2.7,2.7,90,0.00,,---,0.00,VWS V14.01,2013-10-04 11:48:00,
2013-10-04 05:49:00,61.3,58.4,25.22,SE,131,2.7,2.7,90,0.00,,---,0.00,VWS V14.01,2013-10-04 11:49:00,
2013-10-04 05:51:00,61.3,58.4,25.22,SE,145,2.7,3.6,90,0.00,,---,0.00,VWS V14.01,2013-10-04 11:51:00,
2013-10-04 05:53:00,61.3,58.4,25.22,SSE,148,0.0,3.1,90,0.00,,---,0.00,VWS V14.01,2013-10-04 11:53:00,
2013-10-04 05:54:00,61.5,58.6,25.22,SE,142,2.7,2.7,90,0.00,,---,0.00,VWS V14.01,2013-10-04 11:54:00,
2013-10-04 05:55:00,61.5,58.6,25.22,SE,142,2.7,2.7,90,0.00,,---,0.00,VWS V14.01,2013-10-04 11:55:00,
2013-10-04 05:58:00,61.7,58.7,25.22,SSE,147,2.2,3.1,90,0.00,,---,0.00,VWS V14.01,2013-10-04 11:58:00,
2013-10-04 06:00:00,61.7,58.7,25.22,SSE,149,0.0,0.0,90,0.00,,---,0.00,VWS V14.01,2013-10-04 12:00:00,
2013-10-04 06:01:00,61.7,58.7,25.22,SSE,149,0.0,0.0,90,0.00,,---,0.00,VWS V14.01,2013-10-04 12:01:00,
2013-10-04 06:05:00,61.7,58.7,25.22,SE,145,3.1,3.1,90,0.00,,---,0.00,VWS V14.01,2013-10-04 12:05:00,
2013-10-04 06:06:00,61.7,58.7,25.22,SE,145,0.0,3.1,90,0.00,,---,0.00,VWS V14.01,2013-10-04 12:06:00,
2013-10-04 06:07:00,61.7,58.7,25.22,SE,145,2.2,2.2,90,0.00,,---,0.00,VWS V14.01,2013-10-04 12:07:00,
2013-10-04 06:08:00,61.7,58.7,25.22,SE,145,0.0,2.2,90,0.00,,---,0.00,VWS V14.01,2013-10-04 12:08:00,
2013-10-04 06:10:00,61.7,58.4,25.22,SE,145,0.0,0.0,89,0.00,,---,0.00,VWS V14.01,2013-10-04 12:10:00,
2013-10-04 06:14:00,61.7,58.4,25.22,SE,145,0.0,0.0,89,0.00,,---,0.00,VWS V14.01,2013-10-04 12:14:00,
2013-10-04 06:15:00,61.7,58.4,25.22,SE,145,0.0,0.0,89,0.00,,---,0.00,VWS V14.01,2013-10-04 12:15:00,
2013-10-04 06:16:00,61.7,58.4,25.22,SE,145,2.7,2.7,89,0.00,,---,0.00,VWS V14.01,2013-10-04 12:16:00,
2013-10-04 06:17:00,61.7,58.4,25.22,SE,145,3.6,3.6,89,0.00,,---,0.00,VWS V14.01,2013-10-04 12:17:00,
2013-10-04 06:18:00,61.7,58.4,25.25,SE,145,3.1,3.6,89,0.00,,---,0.00,VWS V14.01,2013-10-04 12:18:00,
2013-10-04 06:22:00,61.7,58.4,25.25,ESE,119,3.1,4.0,89,0.00,,---,0.00,VWS V14.01,2013-10-04 12:22:00,
2013-10-04 06:24:00,61.9,58.6,25.25,ESE,122,2.2,2.2,89,0.00,,---,0.00,VWS V14.01,2013-10-04 12:24:00,
2013-10-04 06:27:00,61.9,58.3,25.25,ESE,111,2.2,3.6,88,0.00,,---,0.00,VWS V14.01,2013-10-04 12:27:00,
2013-10-04 06:29:00,61.9,58.3,25.25,SSE,152,0.0,2.7,88,0.00,,---,0.00,VWS V14.01,2013-10-04 12:29:00,
2013-10-04 06:30:00,61.9,58.3,25.25,SSE,152,0.0,0.0,88,0.00,,---,0.00,VWS V14.01,2013-10-04 12:30:00,
2013-10-04 06:31:00,61.9,58.3,25.25,SSE,152,0.0,0.0,88,0.00,,---,0.00,VWS V14.01,2013-10-04 12:31:00,
2013-10-04 06:32:00,61.9,58.3,25.25,SSE,152,0.0,2.2,88,0.00,,---,0.00,VWS V14.01,2013-10-04 12:32:00,
2013-10-04 06:34:00,61.9,58.3,25.25,SSE,152,0.0,0.0,88,0.00,,---,0.00,VWS V14.01,2013-10-04 12:34:00,
2013-10-04 06:38:00,61.9,58.0,25.25,SSE,156,2.7,2.7,87,0.00,,---,0.00,VWS V14.01,2013-10-04 12:38:00,
2013-10-04 06:39:00,62.1,58.2,25.25,SSE,159,2.7,2.7,87,0.00,,---,0.00,VWS V14.01,2013-10-04 12:39:00,
2013-10-04 06:43:00,62.2,57.7,25.25,SSE,160,2.7,3.1,85,0.00,,---,0.00,VWS V14.01,2013-10-04 12:43:00,
2013-10-04 06:45:00,62.2,57.7,25.25,SSE,160,0.0,2.2,85,0.00,,---,0.00,VWS V14.01,2013-10-04 12:45:00,
2013-10-04 06:46:00,62.2,57.7,25.25,SSE,160,2.2,2.2,85,0.00,,---,0.00,VWS V14.01,2013-10-04 12:46:00,
2013-10-04 06:50:00,62.6,58.0,25.25,SSE,160,0.0,0.0,85,0.00,,---,0.00,VWS V14.01,2013-10-04 12:50:00,
2013-10-04 06:51:00,62.6,58.0,25.25,SSE,160,0.0,0.0,85,0.00,,---,0.00,VWS V14.01,2013-10-04 12:51:00,
2013-10-04 06:52:00,62.6,57.7,25.25,SSE,160,0.0,0.0,84,0.00,,---,0.00,VWS V14.01,2013-10-04 12:52:00,
2013-10-04 06:53:00,62.6,57.7,25.25,SSE,160,0.0,0.0,84,0.00,,---,0.00,VWS V14.01,2013-10-04 12:53:00,
2013-10-04 06:56:00,62.8,57.5,25.25,East,83,2.2,2.7,83,0.00,,---,0.00,VWS V14.01,2013-10-04 12:56:00,
2013-10-04 06:57:00,62.8,57.5,25.25,East,83,0.0,2.2,83,0.00,,---,0.00,VWS V14.01,2013-10-04 12:57:00,
2013-10-04 06:58:00,63.0,57.7,25.25,East,83,0.0,0.0,83,0.00,,---,0.00,VWS V14.01,2013-10-04 12:58:00,
2013-10-04 07:01:00,63.0,57.7,25.25,East,83,0.0,0.0,83,0.00,,---,0.00,VWS V14.01,2013-10-04 13:01:00,
2013-10-04 07:02:00,63.0,57.7,25.25,East,83,0.0,0.0,83,0.00,,---,0.00,VWS V14.01,2013-10-04 13:02:00,
2013-10-04 07:04:00,63.1,57.9,25.22,East,83,0.0,0.0,83,0.00,,---,0.00,VWS V14.01,2013-10-04 13:04:00,
2013-10-04 07:07:00,63.1,57.9,25.22,East,83,0.0,0.0,83,0.00,,---,0.00,VWS V14.01,2013-10-04 13:07:00,
2013-10-04 07:08:00,63.3,58.1,25.22,East,83,0.0,0.0,83,0.00,,---,0.00,VWS V14.01,2013-10-04 13:08:00,
2013-10-04 07:09:00,63.3,58.1,25.22,East,83,0.0,0.0,83,0.00,,---,0.00,VWS V14.01,2013-10-04 13:09:00,
2013-10-04 07:11:00,63.5,57.9,25.22,East,83,0.0,0.0,82,0.00,,---,0.00,VWS V14.01,2013-10-04 13:11:00,
2013-10-04 07:14:00,63.9,58.3,25.22,East,83,0.0,0.0,82,0.00,,---,0.00,VWS V14.01,2013-10-04 13:14:00,
2013-10-04 07:17:00,63.9,58.3,25.22,East,83,0.0,0.0,82,0.00,,---,0.00,VWS V14.01,2013-10-04 13:17:00,
2013-10-04 07:18:00,63.9,58.3,25.22,East,83,0.0,0.0,82,0.00,,---,0.00,VWS V14.01,2013-10-04 13:18:00,
2013-10-04 07:19:00,64.0,58.1,25.22,East,83,0.0,0.0,81,0.00,,---,0.00,VWS V14.01,2013-10-04 13:19:00,
2013-10-04 07:21:00,64.0,58.1,25.22,East,83,0.0,0.0,81,0.00,,---,0.00,VWS V14.01,2013-10-04 13:21:00,
2013-10-04 07:22:00,64.2,57.9,25.22,East,83,0.0,0.0,80,0.00,,---,0.00,VWS V14.01,2013-10-04 13:22:00,
2013-10-04 07:24:00,64.4,58.1,25.22,East,83,0.0,0.0,80,0.00,,---,0.00,VWS V14.01,2013-10-04 13:24:00,
2013-10-04 07:25:00,64.4,58.1,25.22,East,83,0.0,0.0,80,0.00,,---,0.00,VWS V14.01,2013-10-04 13:25:00,
2013-10-04 07:26:00,64.6,58.3,25.22,East,83,0.0,0.0,80,0.00,,---,0.00,VWS V14.01,2013-10-04 13:26:00,
2013-10-04 07:27:00,64.6,58.3,25.22,East,83,0.0,0.0,80,0.00,,---,0.00,VWS V14.01,2013-10-04 13:27:00,
2013-10-04 07:29:00,64.8,58.5,25.22,East,83,0.0,0.0,80,0.00,,---,0.00,VWS V14.01,2013-10-04 13:29:00,
2013-10-04 07:31:00,64.8,58.5,25.22,East,83,0.0,0.0,80,0.00,,---,0.00,VWS V14.01,2013-10-04 13:31:00,
2013-10-04 07:32:00,64.8,58.5,25.22,East,83,0.0,0.0,80,0.00,,---,0.00,VWS V14.01,2013-10-04 13:32:00,
2013-10-04 07:33:00,65.1,58.5,25.22,East,83,0.0,0.0,79,0.00,,---,0.00,VWS V14.01,2013-10-04 13:33:00,
2013-10-04 07:36:00,65.3,58.6,25.25,East,83,0.0,0.0,79,0.00,,---,0.00,VWS V14.01,2013-10-04 13:36:00,
2013-10-04 07:37:00,65.3,58.3,25.25,East,83,0.0,0.0,78,0.00,,---,0.00,VWS V14.01,2013-10-04 13:37:00,
2013-10-04 07:38:00,65.3,58.3,25.25,East,83,0.0,0.0,78,0.00,,---,0.00,VWS V14.01,2013-10-04 13:38:00,
2013-10-04 07:40:00,65.5,58.5,25.25,East,83,0.0,0.0,78,0.00,,---,0.00,VWS V14.01,2013-10-04 13:40:00,
2013-10-04 07:42:00,65.5,58.1,25.25,East,83,0.0,0.0,77,0.00,,---,0.00,VWS V14.01,2013-10-04 13:42:00,
2013-10-04 07:44:00,65.5,57.7,25.25,East,83,0.0,0.0,76,0.00,,---,0.00,VWS V14.01,2013-10-04 13:44:00,
2013-10-04 07:45:00,65.7,57.5,25.25,East,83,0.0,0.0,75,0.00,,---,0.00,VWS V14.01,2013-10-04 13:45:00,
2013-10-04 07:46:00,65.7,57.2,25.25,East,83,0.0,0.0,74,0.00,,---,0.00,VWS V14.01,2013-10-04 13:46:00,
2013-10-04 07:47:00,65.7,57.2,25.25,East,83,0.0,0.0,74,0.00,,---,0.00,VWS V14.01,2013-10-04 13:47:00,
2013-10-04 07:52:00,66.0,57.1,25.25,East,80,2.7,3.6,73,0.00,,---,0.00,VWS V14.01,2013-10-04 13:52:00,
2013-10-04 07:54:00,66.2,56.9,25.25,East,80,0.0,0.0,72,0.00,,---,0.00,VWS V14.01,2013-10-04 13:54:00,
2013-10-04 07:55:00,66.2,56.9,25.25,East,80,2.2,2.7,72,0.00,,---,0.00,VWS V14.01,2013-10-04 13:55:00,
2013-10-04 07:59:00,66.2,56.9,25.25,East,80,0.0,2.7,72,0.00,,---,0.00,VWS V14.01,2013-10-04 13:59:00,
2013-10-04 08:00:00,66.2,56.9,25.25,ENE,78,3.1,3.1,72,0.00,,---,0.00,VWS V14.01,2013-10-04 14:00:00,
2013-10-04 08:02:00,66.2,56.9,25.25,ENE,78,2.2,2.2,72,0.00,,---,0.00,VWS V14.01,2013-10-04 14:02:00,
2013-10-04 08:05:00,66.0,57.1,25.25,ENE,78,0.0,0.0,73,0.00,,---,0.00,VWS V14.01,2013-10-04 14:05:00,
2013-10-04 08:06:00,66.0,57.1,25.25,ENE,78,0.0,0.0,73,0.00,,---,0.00,VWS V14.01,2013-10-04 14:06:00,
2013-10-04 08:08:00,66.0,57.1,25.25,ENE,78,0.0,0.0,73,0.00,,---,0.00,VWS V14.01,2013-10-04 14:08:00,
2013-10-04 08:09:00,66.2,57.3,25.25,ENE,78,0.0,0.0,73,0.00,,---,0.00,VWS V14.01,2013-10-04 14:09:00,
2013-10-04 08:10:00,66.2,57.3,25.25,ENE,78,0.0,0.0,73,0.00,,---,0.00,VWS V14.01,2013-10-04 14:10:00,
2013-10-04 08:11:00,66.2,57.3,25.25,ENE,78,0.0,0.0,73,0.00,,---,0.00,VWS V14.01,2013-10-04 14:11:00,
2013-10-04 08:14:00,66.4,57.1,25.25,East,89,4.0,4.0,72,0.00,,---,0.00,VWS V14.01,2013-10-04 14:14:00,
2013-10-04 08:15:00,66.4,57.1,25.25,East,90,2.2,4.0,72,0.00,,---,0.00,VWS V14.01,2013-10-04 14:15:00,
2013-10-04 08:20:00,66.4,54.7,25.25,ENE,62,3.1,5.4,66,0.00,,---,0.00,VWS V14.01,2013-10-04 14:20:00,
2013-10-04 08:21:00,66.4,54.7,25.25,East,97,3.1,3.6,66,0.00,,---,0.00,VWS V14.01,2013-10-04 14:21:00,
2013-10-04 08:22:00,66.4,54.7,25.25,East,83,3.6,3.6,66,0.00,,---,0.00,VWS V14.01,2013-10-04 14:22:00,
2013-10-04 08:23:00,66.4,54.7,25.25,East,86,2.2,3.6,66,0.00,,---,0.00,VWS V14.01,2013-10-04 14:23:00,
2013-10-04 08:26:00,66.4,54.7,25.25,NE,49,0.0,0.0,66,0.00,,---,0.00,VWS V14.01,2013-10-04 14:26:00,
2013-10-04 08:28:00,66.6,54.9,25.25,NE,49,0.0,0.0,66,0.00,,---,0.00,VWS V14.01,2013-10-04 14:28:00,
2013-10-04 08:29:00,66.6,54.9,25.25,NE,49,0.0,0.0,66,0.00,,---,0.00,VWS V14.01,2013-10-04 14:29:00,
2013-10-04 08:31:00,66.7,53.3,25.25,East,86,2.7,2.7,62,0.00,,---,0.00,VWS V14.01,2013-10-04 14:31:00,
2013-10-04 08:32:00,66.9,53.5,25.25,East,87,0.0,2.7,62,0.00,,---,0.00,VWS V14.01,2013-10-04 14:32:00,
2013-10-04 08:33:00,66.9,53.5,25.25,East,87,0.0,0.0,62,0.00,,---,0.00,VWS V14.01,2013-10-04 14:33:00,
2013-10-04 08:35:00,67.3,52.5,25.25,East,87,0.0,0.0,59,0.00,,---,0.00,VWS V14.01,2013-10-04 14:35:00,
2013-10-04 08:37:00,67.5,53.6,25.25,East,87,2.2,2.2,61,0.00,,---,0.00,VWS V14.01,2013-10-04 14:37:00,
2013-10-04 08:38:00,67.8,53.9,25.25,East,87,2.2,2.2,61,0.00,,---,0.00,VWS V14.01,2013-10-04 14:38:00,
2013-10-04 08:39:00,68.2,53.8,25.25,East,87,2.2,2.2,60,0.00,,---,0.00,VWS V14.01,2013-10-04 14:39:00,
2013-10-04 08:41:00,68.5,52.7,25.25,ENE,78,0.0,0.0,57,0.00,,---,0.00,VWS V14.01,2013-10-04 14:41:00,
2013-10-04 08:43:00,68.7,52.4,25.25,ENE,78,0.0,0.0,56,0.00,,---,0.00,VWS V14.01,2013-10-04 14:43:00,
2013-10-04 08:46:00,69.4,51.6,25.25,ENE,78,2.2,2.2,53,0.00,,---,0.00,VWS V14.01,2013-10-04 14:46:00,
2013-10-04 08:47:00,69.4,51.6,25.25,ENE,77,2.7,2.7,53,0.00,,---,0.00,VWS V14.01,2013-10-04 14:47:00,
2013-10-04 08:48:00,69.4,51.6,25.25,ENE,77,2.7,2.7,53,0.00,,---,0.00,VWS V14.01,2013-10-04 14:48:00,
2013-10-04 08:49:00,69.8,51.4,25.25,ENE,77,2.7,2.7,52,0.00,,---,0.00,VWS V14.01,2013-10-04 14:49:00,
2013-10-04 08:52:00,70.2,50.7,25.25,ENE,78,3.1,3.1,50,0.00,,---,0.00,VWS V14.01,2013-10-04 14:52:00,
2013-10-04 08:55:00,70.5,49.3,25.25,East,82,3.1,3.1,47,0.00,,---,0.00,VWS V14.01,2013-10-04 14:55:00,
2013-10-04 08:56:00,70.7,49.5,25.25,East,82,3.1,3.1,47,0.00,,---,0.00,VWS V14.01,2013-10-04 14:56:00,
2013-10-04 08:57:00,70.9,48.5,25.25,East,82,3.1,3.1,45,0.00,,---,0.00,VWS V14.01,2013-10-04 14:57:00,
2013-10-04 08:58:00,70.9,48.5,25.25,East,84,3.1,3.1,45,0.00,,---,0.00,VWS V14.01,2013-10-04 14:58:00,
2013-10-04 09:03:00,72.0,48.3,25.25,East,92,3.1,3.1,43,0.00,,---,0.00,VWS V14.01,2013-10-04 15:03:00,
2013-10-04 09:07:00,72.5,48.8,25.25,East,82,0.0,0.0,43,0.00,,---,0.00,VWS V14.01,2013-10-04 15:07:00,
2013-10-04 09:09:00,72.7,49.5,25.25,East,82,0.0,0.0,44,0.00,,---,0.00,VWS V14.01,2013-10-04 15:09:00,
2013-10-04 09:10:00,73.0,51.1,25.25,East,82,0.0,0.0,46,0.00,,---,0.00,VWS V14.01,2013-10-04 15:10:00,
2013-10-04 09:13:00,73.4,50.2,25.25,WNW,288,4.0,4.0,44,0.00,,---,0.00,VWS V14.01,2013-10-04 15:13:00,
2013-10-04 09:17:00,73.2,51.2,25.25,West,270,5.4,5.4,46,0.00,,---,0.00,VWS V14.01,2013-10-04 15:17:00,
2013-10-04 09:18:00,73.0,51.6,25.25,West,270,5.4,5.4,47,0.00,,---,0.00,VWS V14.01,2013-10-04 15:18:00,
2013-10-04 09:23:00,72.3,50.4,25.25,WNW,299,3.6,3.6,46,0.00,,---,0.00,VWS V14.01,2013-10-04 15:23:00,
2013-10-04 09:24:00,72.3,50.4,25.25,WNW,299,3.6,3.6,46,0.00,,---,0.00,VWS V14.01,2013-10-04 15:24:00,
2013-10-04 09:25:00,72.3,50.4,25.25,WNW,299,3.6,3.6,46,0.00,,---,0.00,VWS V14.01,2013-10-04 15:25:00,
2013-10-04 09:28:00,71.4,50.2,25.25,WNW,285,4.0,4.0,47,0.00,,---,0.00,VWS V14.01,2013-10-04 15:28:00,
2013-10-04 09:29:00,71.2,50.0,25.25,WNW,285,4.0,4.0,47,0.00,,---,0.00,VWS V14.01,2013-10-04 15:29:00,
2013-10-04 09:31:00,71.2,50.0,25.25,NW,321,2.7,2.7,47,0.00,,---,0.00,VWS V14.01,2013-10-04 15:31:00,
2013-10-04 09:32:00,71.2,51.7,25.25,NW,321,2.7,2.7,50,0.00,,---,0.00,VWS V14.01,2013-10-04 15:32:00,
2013-10-04 09:34:00,71.2,51.1,25.25,NW,322,3.6,3.6,49,0.00,,---,0.00,VWS V14.01,2013-10-04 15:34:00,
2013-10-04 09:35:00,71.2,51.1,25.25,NW,322,3.6,3.6,49,0.00,,---,0.00,VWS V14.01,2013-10-04 15:35:00,
2013-10-04 09:37:00,71.4,51.3,25.25,NNW,339,4.0,4.0,49,0.00,,---,0.00,VWS V14.01,2013-10-04 15:37:00,
2013-10-04 09:39:00,71.6,50.9,25.25,NE,38,3.1,4.0,48,0.00,,---,0.00,VWS V14.01,2013-10-04 15:39:00,
2013-10-04 09:42:00,72.0,51.2,25.25,NE,38,3.1,3.1,48,0.00,,---,0.00,VWS V14.01,2013-10-04 15:42:00,
2013-10-04 09:45:00,72.3,52.1,25.25,NNW,341,2.7,2.7,49,0.00,,---,0.00,VWS V14.01,2013-10-04 15:45:00,
2013-10-04 09:46:00,72.3,52.1,25.25,NNW,341,2.7,2.7,49,0.00,,---,0.00,VWS V14.01,2013-10-04 15:46:00,
2013-10-04 09:48:00,72.3,52.1,25.25,NNW,337,2.7,3.1,49,0.00,,---,0.00,VWS V14.01,2013-10-04 15:48:00,
2013-10-04 09:50:00,72.3,51.5,25.25,ENE,57,2.7,2.7,48,0.00,,---,0.00,VWS V14.01,2013-10-04 15:50:00,
2013-10-04 09:51:00,72.3,51.0,25.28,ENE,57,2.7,2.7,47,0.00,,---,0.00,VWS V14.01,2013-10-04 15:51:00,
2013-10-04 09:52:00,72.3,51.0,25.28,ESE,104,3.1,3.1,47,0.00,,---,0.00,VWS V14.01,2013-10-04 15:52:00,
2013-10-04 09:54:00,72.0,49.5,25.28,South,169,0.0,3.1,45,0.00,,---,0.00,VWS V14.01,2013-10-04 15:54:00,
2013-10-04 09:55:00,71.6,49.2,25.28,South,169,0.0,0.0,45,0.00,,---,0.00,VWS V14.01,2013-10-04 15:55:00,
2013-10-04 09:58:00,71.6,50.3,25.28,South,169,0.0,0.0,47,0.00,,---,0.00,VWS V14.01,2013-10-04 15:58:00,
2013-10-04 10:01:00,71.6,50.3,25.28,ENE,66,0.0,0.0,47,0.00,,---,0.00,VWS V14.01,2013-10-04 16:01:00,
2013-10-04 10:02:00,71.8,49.9,25.28,ENE,66,0.0,0.0,46,0.00,,---,0.00,VWS V14.01,2013-10-04 16:02:00,
2013-10-04 10:03:00,71.6,49.2,25.28,SE,141,3.1,3.1,45,0.00,,---,0.00,VWS V14.01,2013-10-04 16:03:00,
2013-10-04 10:05:00,71.6,49.8,25.28,SE,145,2.7,2.7,46,0.00,,---,0.00,VWS V14.01,2013-10-04 16:05:00,
2013-10-04 10:06:00,71.6,51.5,25.28,NE,42,0.0,2.7,49,0.00,,---,0.00,VWS V14.01,2013-10-04 16:06:00,
2013-10-04 10:07:00,71.6,51.5,25.28,North,1,0.0,0.0,49,0.00,,---,0.00,VWS V14.01,2013-10-04 16:07:00,
2013-10-04 10:08:00,71.6,51.5,25.28,North,1,0.0,0.0,49,0.00,,---,0.00,VWS V14.01,2013-10-04 16:08:00,
2013-10-04 10:12:00,71.6,51.5,25.28,East,85,0.0,0.0,49,0.00,,---,0.00,VWS V14.01,2013-10-04 16:12:00,
2013-10-04 10:13:00,71.6,51.5,25.28,East,85,0.0,0.0,49,0.00,,---,0.00,VWS V14.01,2013-10-04 16:13:00,
2013-10-04 10:18:00,71.6,51.5,25.28,NW,323,0.0,0.0,49,0.00,,---,0.00,VWS V14.01,2013-10-04 16:18:00,
2013-10-04 10:19:00,71.6,51.5,25.28,NW,323,0.0,0.0,49,0.00,,---,0.00,VWS V14.01,2013-10-04 16:19:00,
2013-10-04 10:21:00,71.6,51.5,25.28,ENE,66,2.7,2.7,49,0.00,,---,0.00,VWS V14.01,2013-10-04 16:21:00,
2013-10-04 10:22:00,71.6,51.5,25.28,ENE,66,2.7,2.7,49,0.00,,---,0.00,VWS V14.01,2013-10-04 16:22:00,
2013-10-04 10:24:00,70.3,52.4,25.28,ENE,66,2.7,2.7,53,0.00,,---,0.00,VWS V14.01,2013-10-04 16:24:00,
2013-10-04 10:25:00,70.2,52.8,25.28,ENE,69,0.0,2.7,54,0.00,,---,0.00,VWS V14.01,2013-10-04 16:25:00,
2013-10-04 10:27:00,69.8,52.4,25.28,ENE,69,0.0,0.0,54,0.00,,---,0.00,VWS V14.01,2013-10-04 16:27:00,
2013-10-04 10:30:00,69.6,52.3,25.28,NNW,342,0.0,2.7,54,0.00,,---,0.00,VWS V14.01,2013-10-04 16:30:00,
2013-10-04 10:32:00,69.3,53.9,25.28,ENE,59,2.7,2.7,58,0.00,,---,0.00,VWS V14.01,2013-10-04 16:32:00,
2013-10-04 10:33:00,69.3,53.9,25.28,ENE,59,2.7,2.7,58,0.00,,---,0.00,VWS V14.01,2013-10-04 16:33:00,
2013-10-04 10:34:00,69.3,53.9,25.28,East,90,0.0,2.7,58,0.00,,---,0.00,VWS V14.01,2013-10-04 16:34:00,
2013-10-04 10:35:00,68.9,53.5,25.28,East,90,0.0,0.0,58,0.00,,---,0.00,VWS V14.01,2013-10-04 16:35:00,
2013-10-04 10:36:00,68.9,53.5,25.28,East,90,0.0,0.0,58,0.00,,---,0.00,VWS V14.01,2013-10-04 16:36:00,
2013-10-04 10:37:00,68.9,53.5,25.28,East,90,0.0,0.0,58,0.00,,---,0.00,VWS V14.01,2013-10-04 16:37:00,
2013-10-04 10:39:00,68.5,53.7,25.28,NE,43,2.7,2.7,59,0.00,,---,0.00,VWS V14.01,2013-10-04 16:39:00,
2013-10-04 10:41:00,68.5,54.1,25.28,NE,43,0.0,0.0,60,0.00,,---,0.00,VWS V14.01,2013-10-04 16:41:00,
2013-10-04 10:42:00,68.5,54.1,25.28,NE,43,0.0,0.0,60,0.00,,---,0.00,VWS V14.01,2013-10-04 16:42:00,
2013-10-04 10:44:00,68.4,54.4,25.28,NE,43,0.0,0.0,61,0.00,,---,0.00,VWS V14.01,2013-10-04 16:44:00,
2013-10-04 10:48:00,68.2,54.7,25.28,NE,38,0.0,2.7,62,0.00,,---,0.00,VWS V14.01,2013-10-04 16:48:00,
2013-10-04 10:50:00,68.2,54.7,25.25,NE,38,0.0,0.0,62,0.00,,---,0.00,VWS V14.01,2013-10-04 16:50:00,
2013-10-04 10:51:00,68.0,55.0,25.25,NE,47,3.6,3.6,63,0.00,,---,0.00,VWS V14.01,2013-10-04 16:51:00,
2013-10-04 10:53:00,68.0,55.8,25.25,NE,47,2.2,2.2,65,0.00,,---,0.00,VWS V14.01,2013-10-04 16:53:00,
2013-10-04 10:55:00,67.8,56.1,25.25,NE,53,0.0,0.0,66,0.00,,---,0.00,VWS V14.01,2013-10-04 16:55:00,
2013-10-04 10:56:00,67.6,56.7,25.25,NE,53,0.0,0.0,68,0.00,,---,0.00,VWS V14.01,2013-10-04 16:56:00,
2013-10-04 10:57:00,67.6,56.7,25.25,NE,53,0.0,0.0,68,0.00,,---,0.00,VWS V14.01,2013-10-04 16:57:00,
2013-10-04 11:01:00,67.5,57.3,25.25,NE,53,0.0,0.0,70,0.00,,---,0.00,VWS V14.01,2013-10-04 17:01:00,
2013-10-04 11:02:00,67.5,57.3,25.25,NE,53,0.0,0.0,70,0.00,,---,0.00,VWS V14.01,2013-10-04 17:02:00,
2013-10-04 11:03:00,67.5,57.3,25.25,NE,53,0.0,0.0,70,0.00,,---,0.00,VWS V14.01,2013-10-04 17:03:00,
2013-10-04 11:08:00,67.3,58.0,25.25,ENE,60,0.0,0.0,72,0.00,,---,0.00,VWS V14.01,2013-10-04 17:08:00,
2013-10-04 11:09:00,67.3,58.0,25.25,ENE,60,0.0,0.0,72,0.00,,---,0.00,VWS V14.01,2013-10-04 17:09:00,
2013-10-04 11:10:00,67.3,58.0,25.25,ENE,60,0.0,0.0,72,0.00,,---,0.00,VWS V14.01,2013-10-04 17:10:00,
2013-10-04 11:12:00,67.3,58.7,25.25,ENE,60,2.2,2.2,74,0.00,,---,0.00,VWS V14.01,2013-10-04 17:12:00,
2013-10-04 11:13:00,67.3,59.5,25.25,ENE,60,2.2,2.2,76,0.00,,---,0.00,VWS V14.01,2013-10-04 17:13:00,
2013-10-04 11:14:00,67.3,59.5,25.25,ENE,60,0.0,2.2,76,0.00,,---,0.00,VWS V14.01,2013-10-04 17:14:00,
2013-10-04 11:15:00,67.5,59.6,25.25,ENE,60,0.0,0.0,76,0.00,,---,0.00,VWS V14.01,2013-10-04 17:15:00,
2013-10-04 11:19:00,67.3,58.7,25.25,ENE,67,3.1,3.1,74,0.00,,---,0.00,VWS V14.01,2013-10-04 17:19:00,
2013-10-04 11:20:00,67.3,58.0,25.25,ENE,67,3.1,3.1,72,0.00,,---,0.00,VWS V14.01,2013-10-04 17:20:00,
2013-10-04 11:23:00,67.3,58.0,25.25,ENE,67,3.1,3.1,72,0.00,,---,0.00,VWS V14.01,2013-10-04 17:23:00,
2013-10-04 11:25:00,67.5,58.1,25.25,ENE,67,0.0,0.0,72,0.00,,---,0.00,VWS V14.01,2013-10-04 17:25:00,
2013-10-04 11:26:00,67.5,58.1,25.25,ENE,67,0.0,0.0,72,0.00,,---,0.00,VWS V14.01,2013-10-04 17:26:00,
2013-10-04 11:27:00,67.5,58.1,25.25,ENE,67,0.0,0.0,72,0.00,,---,0.00,VWS V14.01,2013-10-04 17:27:00,
2013-10-04 11:28:00,67.5,58.1,25.25,ENE,67,0.0,0.0,72,0.00,,---,0.00,VWS V14.01,2013-10-04 17:28:00,
2013-10-04 11:33:00,67.6,57.5,25.25,ENE,67,0.0,0.0,70,0.00,,---,0.00,VWS V14.01,2013-10-04 17:33:00,
2013-10-04 11:34:00,67.8,57.7,25.25,ENE,67,0.0,0.0,70,0.00,,---,0.00,VWS V14.01,2013-10-04 17:34:00,
2013-10-04 11:35:00,67.8,57.3,25.25,ENE,67,0.0,0.0,69,0.00,,---,0.00,VWS V14.01,2013-10-04 17:35:00,
2013-10-04 11:36:00,67.8,56.1,25.25,ENE,67,0.0,0.0,66,0.00,,---,0.00,VWS V14.01,2013-10-04 17:36:00,
2013-10-04 11:37:00,67.8,55.2,25.25,NE,37,2.2,2.2,64,0.00,,---,0.00,VWS V14.01,2013-10-04 17:37:00,
2013-10-04 12:01:00,67.8,58.9,25.25,NW,315,0.0,0.0,73,0.00,,---,0.00,VWS V14.01,2013-10-04 18:01:00,
2013-10-04 12:02:00,67.8,59.2,25.25,NE,35,0.0,0.0,74,0.00,,---,0.00,VWS V14.01,2013-10-04 18:02:00,
2013-10-04 12:04:00,67.8,59.2,25.22,NE,35,0.0,0.0,74,0.00,,---,0.00,VWS V14.01,2013-10-04 18:04:00,
2013-10-04 12:06:00,67.8,59.2,25.22,NE,35,0.0,0.0,74,0.00,,---,0.00,VWS V14.01,2013-10-04 18:06:00,
2013-10-04 12:07:00,67.8,59.2,25.22,NE,35,0.0,0.0,74,0.00,,---,0.00,VWS V14.01,2013-10-04 18:07:00,
2013-10-04 12:08:00,67.8,58.9,25.22,NE,35,0.0,0.0,73,0.00,,---,0.00,VWS V14.01,2013-10-04 18:08:00,
2013-10-04 12:10:00,67.6,57.9,25.22,ENE,72,3.6,3.6,71,0.00,,---,0.00,VWS V14.01,2013-10-04 18:10:00,
2013-10-04 12:11:00,67.6,57.9,25.22,ENE,72,3.6,3.6,71,0.00,,---,0.00,VWS V14.01,2013-10-04 18:11:00,
2013-10-04 12:13:00,67.6,57.9,25.22,NNW,337,2.2,3.6,71,0.00,,---,0.00,VWS V14.01,2013-10-04 18:13:00,
2013-10-04 12:15:00,67.5,57.7,25.22,NE,42,0.0,2.2,71,0.00,,---,0.00,VWS V14.01,2013-10-04 18:15:00,
2013-10-04 12:16:00,67.5,57.7,25.22,NE,42,0.0,0.0,71,0.00,,---,0.00,VWS V14.01,2013-10-04 18:16:00,
2013-10-04 12:17:00,67.5,57.7,25.22,NW,320,3.6,3.6,71,0.00,,---,0.00,VWS V14.01,2013-10-04 18:17:00,
2013-10-04 12:19:00,67.3,57.6,25.22,North,7,2.7,3.6,71,0.00,,---,0.00,VWS V14.01,2013-10-04 18:19:00,
2013-10-04 12:20:00,67.3,57.6,25.22,North,7,2.2,2.7,71,0.00,,---,0.00,VWS V14.01,2013-10-04 18:20:00,
2013-10-04 12:21:00,67.3,57.6,25.22,North,7,0.0,2.2,71,0.00,,---,0.00,VWS V14.01,2013-10-04 18:21:00,
2013-10-04 12:23:00,67.1,57.4,25.22,North,7,0.0,0.0,71,0.00,,---,0.00,VWS V14.01,2013-10-04 18:23:00,
2013-10-04 12:24:00,66.9,57.6,25.22,North,7,0.0,0.0,72,0.00,,---,0.00,VWS V14.01,2013-10-04 18:24:00,
2013-10-04 12:28:00,66.7,57.4,25.22,NNE,31,0.0,0.0,72,0.00,,---,0.00,VWS V14.01,2013-10-04 18:28:00,
2013-10-04 12:29:00,66.7,58.2,25.22,NNE,31,0.0,0.0,74,0.00,,---,0.00,VWS V14.01,2013-10-04 18:29:00,
2013-10-04 12:30:00,66.7,58.2,25.22,NE,34,2.2,2.2,74,0.00,,---,0.00,VWS V14.01,2013-10-04 18:30:00,
2013-10-04 12:31:00,66.6,58.0,25.22,NE,34,0.0,2.2,74,0.00,,---,0.00,VWS V14.01,2013-10-04 18:31:00,
2013-10-04 12:33:00,66.6,58.0,25.22,NE,34,0.0,0.0,74,0.00,,---,0.00,VWS V14.01,2013-10-04 18:33:00,
2013-10-04 12:36:00,66.6,58.4,25.22,NE,34,0.0,0.0,75,0.00,,---,0.00,VWS V14.01,2013-10-04 18:36:00,
2013-10-04 12:38:00,66.2,58.0,25.22,NE,34,0.0,0.0,75,0.00,,---,0.00,VWS V14.01,2013-10-04 18:38:00,
2013-10-04 12:39:00,66.2,58.0,25.22,NE,34,0.0,0.0,75,0.00,,---,0.00,VWS V14.01,2013-10-04 18:39:00,
2013-10-04 12:42:00,66.4,59.0,25.22,NE,34,0.0,0.0,77,0.00,,---,0.00,VWS V14.01,2013-10-04 18:42:00,
2013-10-04 12:43:00,66.4,59.0,25.22,NE,34,0.0,0.0,77,0.00,,---,0.00,VWS V14.01,2013-10-04 18:43:00,
2013-10-04 12:44:00,66.4,59.0,25.22,NE,34,0.0,0.0,77,0.00,,---,0.00,VWS V14.01,2013-10-04 18:44:00,
2013-10-04 12:47:00,66.4,59.0,25.22,NE,34,0.0,0.0,77,0.00,,---,0.00,VWS V14.01,2013-10-04 18:47:00,
2013-10-04 12:49:00,66.4,59.0,25.22,NE,34,0.0,0.0,77,0.00,,---,0.00,VWS V14.01,2013-10-04 18:49:00,
2013-10-04 12:50:00,66.4,59.3,25.22,NE,34,0.0,0.0,78,0.00,,---,0.00,VWS V14.01,2013-10-04 18:50:00,
2013-10-04 12:54:00,66.6,59.5,25.22,NNW,334,2.7,2.7,78,0.00,,---,0.00,VWS V14.01,2013-10-04 18:54:00,
2013-10-04 12:55:00,66.6,59.5,25.22,NNW,334,2.2,2.7,78,0.00,,---,0.00,VWS V14.01,2013-10-04 18:55:00,
2013-10-04 12:57:00,66.6,59.5,25.22,NNW,334,2.2,2.2,78,0.00,,---,0.00,VWS V14.01,2013-10-04 18:57:00,
2013-10-04 12:58:00,66.6,59.5,25.22,NNW,334,0.0,2.2,78,0.00,,---,0.00,VWS V14.01,2013-10-04 18:58:00,
2013-10-04 12:59:00,66.6,59.5,25.22,NNW,334,0.0,0.0,78,0.00,,---,0.00,VWS V14.01,2013-10-04 18:59:00,
2013-10-04 13:00:00,66.6,59.5,25.22,North,7,0.0,2.2,78,0.00,,---,0.00,VWS V14.01,2013-10-04 19:00:00,
2013-10-04 13:06:00,66.9,60.2,25.22,North,353,0.0,0.0,79,0.00,,---,0.00,VWS V14.01,2013-10-04 19:06:00,
2013-10-04 13:07:00,66.9,60.2,25.22,North,353,0.0,0.0,79,0.00,,---,0.00,VWS V14.01,2013-10-04 19:07:00,
2013-10-04 13:08:00,66.9,60.2,25.22,North,353,0.0,0.0,79,0.00,,---,0.00,VWS V14.01,2013-10-04 19:08:00,
2013-10-04 13:09:00,66.9,60.2,25.22,North,353,0.0,0.0,79,0.00,,---,0.00,VWS V14.01,2013-10-04 19:09:00,
2013-10-04 13:12:00,66.9,60.2,25.22,North,353,0.0,0.0,79,0.00,,---,0.00,VWS V14.01,2013-10-04 19:12:00,
2013-10-04 13:15:00,66.9,60.2,25.22,North,353,0.0,0.0,79,0.00,,---,0.00,VWS V14.01,2013-10-04 19:15:00,
2013-10-04 13:16:00,66.9,60.2,25.22,North,353,0.0,0.0,79,0.00,,---,0.00,VWS V14.01,2013-10-04 19:16:00,
2013-10-04 13:18:00,66.7,60.0,25.19,North,353,0.0,0.0,79,0.00,,---,0.00,VWS V14.01,2013-10-04 19:18:00,
2013-10-04 13:22:00,66.7,59.7,25.19,North,353,0.0,0.0,78,0.00,,---,0.00,VWS V14.01,2013-10-04 19:22:00,
2013-10-04 13:23:00,66.7,59.7,25.19,North,353,0.0,0.0,78,0.00,,---,0.00,VWS V14.01,2013-10-04 19:23:00,
2013-10-04 13:24:00,66.7,59.7,25.19,North,353,0.0,0.0,78,0.00,,---,0.00,VWS V14.01,2013-10-04 19:24:00,
2013-10-04 13:27:00,66.7,60.0,25.19,North,353,0.0,0.0,79,0.00,,---,0.00,VWS V14.01,2013-10-04 19:27:00,
2013-10-04 13:28:00,66.7,60.0,25.19,North,353,0.0,0.0,79,0.00,,---,0.00,VWS V14.01,2013-10-04 19:28:00,
2013-10-04 13:30:00,66.6,59.8,25.19,North,353,0.0,0.0,79,0.00,,---,0.00,VWS V14.01,2013-10-04 19:30:00,
2013-10-04 13:31:00,66.6,59.8,25.19,North,353,0.0,0.0,79,0.00,,---,0.00,VWS V14.01,2013-10-04 19:31:00,
2013-10-04 13:32:00,66.6,59.8,25.19,North,353,0.0,0.0,79,0.00,,---,0.00,VWS V14.01,2013-10-04 19:32:00,
2013-10-04 13:36:00,66.6,60.2,25.19,North,353,2.2,2.2,80,0.00,,---,0.00,VWS V14.01,2013-10-04 19:36:00,
2013-10-04 13:37:00,66.6,60.2,25.19,North,353,2.2,2.2,80,0.00,,---,0.00,VWS V14.01,2013-10-04 19:37:00,
2013-10-04 13:38:00,66.6,60.2,25.19,North,353,2.2,2.2,80,0.00,,---,0.00,VWS V14.01,2013-10-04 19:38:00,
2013-10-04 13:39:00,66.6,60.2,25.19,North,353,2.2,2.2,80,0.00,,---,0.00,VWS V14.01,2013-10-04 19:39:00,
2013-10-04 13:43:00,66.2,59.5,25.19,North,353,2.2,2.2,79,0.00,,---,0.00,VWS V14.01,2013-10-04 19:43:00,
2013-10-04 13:44:00,66.2,59.5,25.19,North,353,2.2,2.2,79,0.00,,---,0.00,VWS V14.01,2013-10-04 19:44:00,
2013-10-04 13:45:00,66.2,59.9,25.19,North,353,2.2,2.2,80,0.00,,---,0.00,VWS V14.01,2013-10-04 19:45:00,
2013-10-04 13:46:00,66.2,59.9,25.19,North,353,2.2,2.2,80,0.00,,---,0.00,VWS V14.01,2013-10-04 19:46:00,
2013-10-04 13:49:00,66.2,59.9,25.19,North,353,2.2,2.2,80,0.00,,---,0.00,VWS V14.01,2013-10-04 19:49:00,
2013-10-04 13:50:00,66.2,59.9,25.19,North,353,2.2,2.2,80,0.00,,---,0.00,VWS V14.01,2013-10-04 19:50:00,
2013-10-04 13:52:00,66.2,59.9,25.19,North,353,2.2,2.2,80,0.00,,---,0.00,VWS V14.01,2013-10-04 19:52:00,
2013-10-04 13:53:00,66.2,59.9,25.19,North,353,2.2,2.2,80,0.00,,---,0.00,VWS V14.01,2013-10-04 19:53:00,
2013-10-04 13:54:00,66.2,59.9,25.19,North,353,0.0,2.2,80,0.00,,---,0.00,VWS V14.01,2013-10-04 19:54:00,
2013-10-04 13:56:00,66.4,60.4,25.19,North,353,0.0,0.0,81,0.00,,---,0.00,VWS V14.01,2013-10-04 19:56:00,
2013-10-04 14:01:00,66.7,60.7,25.19,North,353,0.0,0.0,81,0.00,,---,0.00,VWS V14.01,2013-10-04 20:01:00,
2013-10-04 14:02:00,66.7,60.7,25.19,North,353,0.0,0.0,81,0.00,,---,0.00,VWS V14.01,2013-10-04 20:02:00,
2013-10-04 14:04:00,66.9,61.2,25.19,North,353,0.0,0.0,82,0.00,,---,0.00,VWS V14.01,2013-10-04 20:04:00,
2013-10-04 14:08:00,67.1,61.4,25.19,North,353,2.2,2.2,82,0.00,,---,0.00,VWS V14.01,2013-10-04 20:08:00,
2013-10-04 14:09:00,67.1,61.4,25.19,North,353,0.0,2.2,82,0.00,,---,0.00,VWS V14.01,2013-10-04 20:09:00,
2013-10-04 14:10:00,67.1,61.4,25.19,North,353,0.0,0.0,82,0.00,,---,0.00,VWS V14.01,2013-10-04 20:10:00,
2013-10-04 14:12:00,67.1,61.4,25.19,North,353,2.7,2.7,82,0.00,,---,0.00,VWS V14.01,2013-10-04 20:12:00,
2013-10-04 14:14:00,67.1,61.4,25.19,North,353,0.0,0.0,82,0.00,,---,0.00,VWS V14.01,2013-10-04 20:14:00,
2013-10-04 14:15:00,67.1,61.4,25.19,North,353,0.0,0.0,82,0.00,,---,0.00,VWS V14.01,2013-10-04 20:15:00,
2013-10-04 14:17:00,67.1,61.4,25.19,North,353,0.0,0.0,82,0.00,,---,0.00,VWS V14.01,2013-10-04 20:17:00,
2013-10-04 14:20:00,67.1,61.4,25.19,North,353,0.0,0.0,82,0.00,,---,0.00,VWS V14.01,2013-10-04 20:20:00,
2013-10-04 14:21:00,67.1,61.4,25.19,North,353,0.0,0.0,82,0.00,,---,0.00,VWS V14.01,2013-10-04 20:21:00,
2013-10-04 14:22:00,67.1,61.4,25.19,NE,43,2.7,2.7,82,0.00,,---,0.00,VWS V14.01,2013-10-04 20:22:00,
2013-10-04 14:23:00,67.1,61.4,25.19,NE,43,2.7,2.7,82,0.00,,---,0.00,VWS V14.01,2013-10-04 20:23:00,
2013-10-04 14:24:00,67.1,61.4,25.19,ENE,75,2.2,2.7,82,0.00,,---,0.00,VWS V14.01,2013-10-04 20:24:00,
2013-10-04 14:25:00,67.1,61.1,25.19,ENE,75,2.2,2.2,81,0.00,,---,0.00,VWS V14.01,2013-10-04 20:25:00,
2013-10-04 14:28:00,67.1,61.1,25.19,ENE,75,2.2,2.2,81,0.00,,---,0.00,VWS V14.01,2013-10-04 20:28:00,
2013-10-04 14:30:00,67.3,61.6,25.19,East,89,2.7,2.7,82,0.00,,---,0.00,VWS V14.01,2013-10-04 20:30:00,
2013-10-04 14:31:00,67.3,61.6,25.19,East,89,2.7,2.7,82,0.00,,---,0.00,VWS V14.01,2013-10-04 20:31:00,
2013-10-04 14:34:00,67.3,61.6,25.19,East,89,2.7,2.7,82,0.00,,---,0.00,VWS V14.01,2013-10-04 20:34:00,
2013-10-04 14:35:00,67.5,62.1,25.19,NE,47,2.2,2.7,83,0.00,,---,0.00,VWS V14.01,2013-10-04 20:35:00,
2013-10-04 14:36:00,67.5,62.1,25.19,NE,47,2.2,2.2,83,0.00,,---,0.00,VWS V14.01,2013-10-04 20:36:00,
2013-10-04 14:37:00,67.5,62.1,25.19,NE,47,2.2,2.2,83,0.00,,---,0.00,VWS V14.01,2013-10-04 20:37:00,
2013-10-04 14:39:00,67.5,62.1,25.19,East,99,4.0,4.0,83,0.00,,---,0.00,VWS V14.01,2013-10-04 20:39:00,
2013-10-04 14:41:00,67.3,61.6,25.19,East,85,2.7,2.7,82,0.00,,---,0.00,VWS V14.01,2013-10-04 20:41:00,
2013-10-04 14:42:00,67.3,61.6,25.19,SE,128,2.7,2.7,82,0.00,,---,0.00,VWS V14.01,2013-10-04 20:42:00,
2013-10-04 14:44:00,67.3,61.3,25.19,ENE,66,2.2,2.7,81,0.00,,---,0.00,VWS V14.01,2013-10-04 20:44:00,
2013-10-04 14:45:00,67.3,61.3,25.19,ENE,66,2.2,2.2,81,0.00,,---,0.00,VWS V14.01,2013-10-04 20:45:00,
2013-10-04 14:47:00,67.1,61.4,25.19,East,84,0.0,0.0,82,0.00,,---,0.00,VWS V14.01,2013-10-04 20:47:00,
2013-10-04 14:48:00,67.1,61.4,25.19,East,84,0.0,0.0,82,0.00,,---,0.00,VWS V14.01,2013-10-04 20:48:00,
2013-10-04 14:49:00,67.1,61.4,25.19,ENE,70,2.7,2.7,82,0.00,,---,0.00,VWS V14.01,2013-10-04 20:49:00,
2013-10-04 14:50:00,67.1,61.4,25.19,ENE,70,2.7,2.7,82,0.00,,---,0.00,VWS V14.01,2013-10-04 20:50:00,
2013-10-04 14:52:00,67.1,61.4,25.19,East,85,0.0,0.0,82,0.00,,---,0.00,VWS V14.01,2013-10-04 20:52:00,
2013-10-04 14:55:00,67.1,61.4,25.19,East,79,3.1,3.1,82,0.00,,---,0.00,VWS V14.01,2013-10-04 20:55:00,
2013-10-04 14:56:00,67.1,61.4,25.19,East,79,3.1,3.1,82,0.00,,---,0.00,VWS V14.01,2013-10-04 20:56:00,
2013-10-04 14:57:00,67.1,61.4,25.19,SE,124,3.1,3.1,82,0.00,,---,0.00,VWS V14.01,2013-10-04 20:57:00,
2013-10-04 14:58:00,67.1,61.4,25.19,SE,124,3.1,3.1,82,0.00,,---,0.00,VWS V14.01,2013-10-04 20:58:00,
2013-10-04 15:03:00,66.7,61.4,25.19,East,81,0.0,0.0,83,0.00,,---,0.00,VWS V14.01,2013-10-04 21:03:00,
2013-10-04 15:04:00,66.7,61.4,25.19,East,81,0.0,0.0,83,0.00,,---,0.00,VWS V14.01,2013-10-04 21:04:00,
2013-10-04 15:06:00,66.7,61.4,25.19,East,81,0.0,0.0,83,0.00,,---,0.00,VWS V14.01,2013-10-04 21:06:00,
2013-10-04 15:09:00,66.6,61.6,25.19,East,81,0.0,0.0,84,0.00,,---,0.00,VWS V14.01,2013-10-04 21:09:00,
2013-10-04 15:10:00,66.6,61.6,25.19,ENE,75,0.0,0.0,84,0.00,,---,0.00,VWS V14.01,2013-10-04 21:10:00,
2013-10-04 15:11:00,66.6,61.6,25.19,NE,41,0.0,0.0,84,0.00,,---,0.00,VWS V14.01,2013-10-04 21:11:00,
2013-10-04 15:14:00,66.4,61.4,25.19,North,3,0.0,0.0,84,0.00,,---,0.00,VWS V14.01,2013-10-04 21:14:00,
2013-10-04 15:15:00,66.4,61.4,25.19,North,3,0.0,0.0,84,0.00,,---,0.00,VWS V14.01,2013-10-04 21:15:00,
2013-10-04 15:16:00,66.2,61.6,25.19,North,3,0.0,0.0,85,0.00,,---,0.00,VWS V14.01,2013-10-04 21:16:00,
2013-10-04 15:17:00,66.2,61.6,25.19,East,92,2.2,3.1,85,0.00,,---,0.00,VWS V14.01,2013-10-04 21:17:00,
2013-10-04 15:19:00,66.2,61.6,25.19,East,91,2.2,2.2,85,0.00,,---,0.00,VWS V14.01,2013-10-04 21:19:00,
2013-10-04 15:23:00,66.0,61.7,25.19,East,91,2.2,2.2,86,0.00,,---,0.00,VWS V14.01,2013-10-04 21:23:00,
2013-10-04 15:25:00,65.7,61.7,25.19,East,101,3.6,3.6,87,0.00,,---,0.00,VWS V14.01,2013-10-04 21:25:00,
2013-10-04 15:26:00,65.7,61.7,25.19,East,101,3.6,3.6,87,0.00,,---,0.00,VWS V14.01,2013-10-04 21:26:00,
2013-10-04 15:28:00,65.5,61.8,25.19,ESE,102,2.7,3.6,88,0.00,,---,0.00,VWS V14.01,2013-10-04 21:28:00,
2013-10-04 15:31:00,65.3,61.7,25.19,ESE,102,0.0,0.0,88,0.00,,---,0.00,VWS V14.01,2013-10-04 21:31:00,
2013-10-04 15:32:00,65.3,61.7,25.19,ESE,102,0.0,0.0,88,0.24,,---,0.24,VWS V14.01,2013-10-04 21:32:00,
2013-10-04 15:34:00,65.3,61.7,25.19,ESE,102,0.0,0.0,88,0.24,,---,0.24,VWS V14.01,2013-10-04 21:34:00,
2013-10-04 15:35:00,65.3,61.7,25.19,ESE,105,0.0,0.0,88,0.24,,---,0.24,VWS V14.01,2013-10-04 21:35:00,
2013-10-04 15:37:00,65.3,61.7,25.19,ESE,105,0.0,0.0,88,0.24,,---,0.24,VWS V14.01,2013-10-04 21:37:00,
2013-10-04 15:38:00,65.3,61.7,25.19,ESE,105,0.0,0.0,88,0.24,,---,0.24,VWS V14.01,2013-10-04 21:38:00,
2013-10-04 15:42:00,64.4,60.8,25.19,ESE,105,0.0,0.0,88,0.35,,---,0.35,VWS V14.01,2013-10-04 21:42:00,
2013-10-04 15:43:00,64.4,60.8,25.19,ESE,105,0.0,0.0,88,0.35,,---,0.35,VWS V14.01,2013-10-04 21:43:00,
2013-10-04 15:44:00,64.4,61.1,25.19,ESE,105,0.0,0.0,89,0.35,,---,0.35,VWS V14.01,2013-10-04 21:44:00,
2013-10-04 15:45:00,64.2,60.9,25.19,ESE,105,0.0,0.0,89,0.35,,---,0.35,VWS V14.01,2013-10-04 21:45:00,
2013-10-04 15:46:00,64.2,60.9,25.19,ENE,68,0.0,0.0,89,0.35,,---,0.35,VWS V14.01,2013-10-04 21:46:00,
2013-10-04 15:48:00,64.2,60.9,25.19,NNE,20,3.1,3.1,89,0.35,,---,0.35,VWS V14.01,2013-10-04 21:48:00,
2013-10-04 15:51:00,64.0,60.7,25.19,NW,322,2.7,3.1,89,0.35,,---,0.35,VWS V14.01,2013-10-04 21:51:00,
2013-10-04 15:52:00,64.0,60.7,25.19,NW,322,2.2,3.1,89,0.35,,---,0.35,VWS V14.01,2013-10-04 21:52:00,
2013-10-04 15:53:00,64.0,60.7,25.19,NW,322,0.0,2.2,89,0.35,,---,0.35,VWS V14.01,2013-10-04 21:53:00,
2013-10-04 15:55:00,63.9,60.6,25.19,NW,322,0.0,0.0,89,0.35,,---,0.35,VWS V14.01,2013-10-04 21:55:00,
2013-10-04 15:56:00,63.9,60.9,25.19,NW,322,0.0,0.0,90,0.35,,---,0.35,VWS V14.01,2013-10-04 21:56:00,
2013-10-04 15:58:00,63.9,60.9,25.19,NNW,329,3.1,3.1,90,0.35,,---,0.35,VWS V14.01,2013-10-04 21:58:00,
2013-10-04 15:59:00,63.7,60.7,25.19,NNW,329,0.0,3.1,90,0.35,,---,0.35,VWS V14.01,2013-10-04 21:59:00,
2013-10-04 16:00:00,63.7,60.7,25.19,NNW,329,2.2,2.2,90,0.35,,---,0.35,VWS V14.01,2013-10-04 22:00:00,
2013-10-04 16:02:00,63.7,60.7,25.19,NNW,329,0.0,0.0,90,0.35,,---,0.35,VWS V14.01,2013-10-04 22:02:00,
2013-10-04 16:05:00,63.5,60.5,25.19,NW,321,0.0,0.0,90,0.35,,---,0.35,VWS V14.01,2013-10-04 22:05:00,
2013-10-04 16:08:00,63.5,60.5,25.19,NNE,30,2.2,2.2,90,0.35,,---,0.35,VWS V14.01,2013-10-04 22:08:00,
2013-10-04 16:09:00,63.7,61.0,25.19,NNE,30,0.0,2.2,91,0.35,,---,0.35,VWS V14.01,2013-10-04 22:09:00,
2013-10-04 16:11:00,63.7,61.0,25.19,NNE,31,0.0,0.0,91,0.35,,---,0.35,VWS V14.01,2013-10-04 22:11:00,
2013-10-04 16:13:00,63.7,61.0,25.19,NNE,31,0.0,0.0,91,0.35,,---,0.35,VWS V14.01,2013-10-04 22:13:00,
2013-10-04 16:15:00,63.5,60.8,25.19,NNE,30,0.0,0.0,91,0.35,,---,0.35,VWS V14.01,2013-10-04 22:15:00,
2013-10-04 16:18:00,63.5,60.8,25.19,NNE,31,0.0,0.0,91,0.35,,---,0.35,VWS V14.01,2013-10-04 22:18:00,
2013-10-04 16:19:00,63.5,60.8,25.19,NNE,31,0.0,0.0,91,0.35,,---,0.35,VWS V14.01,2013-10-04 22:19:00,
2013-10-04 16:20:00,63.5,60.8,25.19,NNE,30,0.0,0.0,91,0.35,,---,0.35,VWS V14.01,2013-10-04 22:20:00,
2013-10-04 16:22:00,63.5,60.8,25.19,NNE,30,0.0,0.0,91,0.35,,---,0.35,VWS V14.01,2013-10-04 22:22:00,
2013-10-04 16:23:00,63.3,60.7,25.19,NNE,30,0.0,0.0,91,0.35,,---,0.35,VWS V14.01,2013-10-04 22:23:00,
2013-10-04 16:25:00,63.3,60.7,25.19,NNE,30,0.0,0.0,91,0.35,,---,0.35,VWS V14.01,2013-10-04 22:25:00,
2013-10-04 16:26:00,63.3,60.7,25.19,NNE,30,0.0,0.0,91,0.35,,---,0.35,VWS V14.01,2013-10-04 22:26:00,
2013-10-04 16:29:00,63.3,60.7,25.19,NNE,31,0.0,0.0,91,0.35,,---,0.35,VWS V14.01,2013-10-04 22:29:00,
2013-10-04 16:30:00,63.5,61.1,25.19,NNE,30,0.0,0.0,92,0.39,,---,0.39,VWS V14.01,2013-10-04 22:30:00,
2013-10-04 16:31:00,63.5,61.1,25.19,NNE,30,0.0,0.0,92,0.39,,---,0.39,VWS V14.01,2013-10-04 22:31:00,
2013-10-04 16:32:00,63.5,61.1,25.19,NNE,30,0.0,0.0,92,0.39,,---,0.39,VWS V14.01,2013-10-04 22:32:00,
2013-10-04 16:34:00,63.5,61.1,25.19,NNE,31,0.0,0.0,92,0.16,,---,0.39,VWS V14.01,2013-10-04 22:34:00,
2013-10-04 16:35:00,63.5,61.1,25.19,NNE,30,0.0,0.0,92,0.16,,---,0.39,VWS V14.01,2013-10-04 22:35:00,
2013-10-04 16:37:00,63.1,61.1,25.19,NNE,30,0.0,0.0,93,0.16,,---,0.39,VWS V14.01,2013-10-04 22:37:00,
2013-10-04 16:38:00,63.1,61.1,25.19,NNE,30,0.0,0.0,93,0.16,,---,0.39,VWS V14.01,2013-10-04 22:38:00,
2013-10-04 16:39:00,63.1,61.1,25.19,NNE,30,0.0,0.0,93,0.16,,---,0.39,VWS V14.01,2013-10-04 22:39:00,
2013-10-04 16:44:00,63.1,61.1,25.19,NNE,30,0.0,0.0,93,0.04,,---,0.39,VWS V14.01,2013-10-04 22:44:00,
2013-10-04 16:45:00,63.1,61.1,25.19,NNE,30,0.0,0.0,93,0.04,,---,0.39,VWS V14.01,2013-10-04 22:45:00,
2013-10-04 16:46:00,63.1,61.1,25.19,NNE,30,0.0,0.0,93,0.04,,---,0.39,VWS V14.01,2013-10-04 22:46:00,
2013-10-04 16:47:00,63.1,61.1,25.19,NNE,30,0.0,0.0,93,0.04,,---,0.39,VWS V14.01,2013-10-04 22:47:00,
2013-10-04 16:49:00,63.1,61.1,25.19,NNE,30,0.0,0.0,93,0.04,,---,0.39,VWS V14.01,2013-10-04 22:49:00,
2013-10-04 16:51:00,63.1,61.1,25.19,NNE,30,0.0,0.0,93,0.04,,---,0.39,VWS V14.01,2013-10-04 22:51:00,
2013-10-04 16:55:00,63.1,61.1,25.22,NNE,31,0.0,0.0,93,0.04,,---,0.39,VWS V14.01,2013-10-04 22:55:00,
2013-10-04 16:56:00,63.1,61.1,25.22,NNE,31,0.0,0.0,93,0.04,,---,0.39,VWS V14.01,2013-10-04 22:56:00,
2013-10-04 16:57:00,63.1,61.1,25.22,NNE,31,0.0,0.0,93,0.04,,---,0.39,VWS V14.01,2013-10-04 22:57:00,
2013-10-04 16:58:00,63.1,61.1,25.22,NNE,31,0.0,0.0,93,0.04,,---,0.39,VWS V14.01,2013-10-04 22:58:00,
2013-10-04 16:59:00,63.1,61.1,25.22,NNE,30,0.0,0.0,93,0.04,,---,0.39,VWS V14.01,2013-10-04 22:59:00,
2013-10-04 17:00:00,63.0,60.9,25.22,NNE,30,0.0,0.0,93,0.04,,---,0.39,VWS V14.01,2013-10-04 23:00:00,
2013-10-04 17:02:00,63.0,60.9,25.22,NNE,31,0.0,0.0,93,0.04,,---,0.39,VWS V14.01,2013-10-04 23:02:00,
2013-10-04 17:04:00,63.0,60.9,25.22,North,2,0.0,0.0,93,0.04,,---,0.39,VWS V14.01,2013-10-04 23:04:00,
2013-10-04 17:05:00,63.0,60.9,25.22,North,2,0.0,0.0,93,0.04,,---,0.39,VWS V14.01,2013-10-04 23:05:00,
2013-10-04 17:07:00,63.0,60.9,25.22,NW,326,0.0,0.0,93,0.04,,---,0.39,VWS V14.01,2013-10-04 23:07:00,
2013-10-04 17:11:00,63.0,60.9,25.22,NNW,328,0.0,0.0,93,0.04,,---,0.39,VWS V14.01,2013-10-04 23:11:00,
2013-10-04 17:13:00,62.8,60.7,25.22,NNW,328,0.0,0.0,93,0.04,,---,0.39,VWS V14.01,2013-10-04 23:13:00,
2013-10-04 17:14:00,62.8,60.7,25.22,NNW,328,0.0,0.0,93,0.04,,---,0.39,VWS V14.01,2013-10-04 23:14:00,
2013-10-04 17:16:00,62.8,60.7,25.22,NNW,328,2.2,2.2,93,0.04,,---,0.39,VWS V14.01,2013-10-04 23:16:00,
2013-10-04 17:19:00,62.8,60.7,25.22,NNW,328,0.0,0.0,93,0.04,,---,0.39,VWS V14.01,2013-10-04 23:19:00,
2013-10-04 17:20:00,62.8,60.7,25.22,NNW,328,0.0,0.0,93,0.04,,---,0.39,VWS V14.01,2013-10-04 23:20:00,
2013-10-04 17:22:00,62.6,60.5,25.22,NNW,328,0.0,0.0,93,0.04,,---,0.39,VWS V14.01,2013-10-04 23:22:00,
2013-10-04 17:23:00,62.6,60.5,25.22,NNW,328,0.0,0.0,93,0.04,,---,0.39,VWS V14.01,2013-10-04 23:23:00,
2013-10-04 17:26:00,62.6,60.8,25.22,SE,127,3.6,3.6,94,0.04,,---,0.39,VWS V14.01,2013-10-04 23:26:00,
2013-10-04 17:27:00,62.6,60.8,25.22,SE,127,3.6,3.6,94,0.04,,---,0.39,VWS V14.01,2013-10-04 23:27:00,
2013-10-04 17:29:00,62.6,60.8,25.22,SE,127,0.0,0.0,94,0.04,,---,0.39,VWS V14.01,2013-10-04 23:29:00,
2013-10-04 17:31:00,62.4,60.7,25.22,NNE,23,2.7,2.7,94,0.00,,---,0.39,VWS V14.01,2013-10-04 23:31:00,
2013-10-04 17:33:00,62.4,60.7,25.22,NNE,23,2.7,2.7,94,0.00,,---,0.39,VWS V14.01,2013-10-04 23:33:00,
2013-10-04 17:35:00,62.4,60.7,25.22,NNE,22,2.2,2.7,94,0.00,,---,0.39,VWS V14.01,2013-10-04 23:35:00,
2013-10-04 17:36:00,62.4,60.7,25.22,NNE,22,0.0,2.2,94,0.00,,---,0.39,VWS V14.01,2013-10-04 23:36:00,
2013-10-04 17:38:00,62.4,60.7,25.22,NNE,22,0.0,0.0,94,0.00,,---,0.39,VWS V14.01,2013-10-04 23:38:00,
2013-10-04 17:39:00,62.4,60.7,25.22,NE,39,0.0,0.0,94,0.00,,---,0.39,VWS V14.01,2013-10-04 23:39:00,
2013-10-04 17:41:00,62.4,60.7,25.22,NE,39,2.2,2.2,94,0.00,,---,0.39,VWS V14.01,2013-10-04 23:41:00,
2013-10-04 17:42:00,62.4,60.7,25.22,NE,39,2.2,2.2,94,0.00,,---,0.39,VWS V14.01,2013-10-04 23:42:00,
2013-10-04 17:44:00,62.2,61.1,25.22,NE,39,0.0,2.2,96,0.00,,---,0.39,VWS V14.01,2013-10-04 23:44:00,
2013-10-04 17:45:00,62.2,61.1,25.22,NE,39,0.0,0.0,96,0.00,,---,0.39,VWS V14.01,2013-10-04 23:45:00,
2013-10-04 17:47:00,62.2,61.1,25.22,NE,39,0.0,0.0,96,0.00,,---,0.39,VWS V14.01,2013-10-04 23:47:00,
2013-10-04 17:48:00,62.2,61.1,25.19,NE,39,0.0,0.0,96,0.00,,---,0.39,VWS V14.01,2013-10-04 23:48:00,
2013-10-04 17:51:00,62.2,61.1,25.19,NE,39,0.0,0.0,96,0.00,,---,0.39,VWS V14.01,2013-10-04 23:51:00,
2013-10-04 17:53:00,62.2,61.1,25.19,NE,39,0.0,0.0,96,0.00,,---,0.39,VWS V14.01,2013-10-04 23:53:00,
2013-10-04 17:54:00,62.2,61.1,25.19,NE,39,0.0,0.0,96,0.00,,---,0.39,VWS V14.01,2013-10-04 23:54:00,
2013-10-04 17:56:00,62.2,61.1,25.19,NE,39,0.0,0.0,96,0.00,,---,0.39,VWS V14.01,2013-10-04 23:56:00,
2013-10-04 17:57:00,62.2,61.1,25.19,NE,39,0.0,0.0,96,0.00,,---,0.39,VWS V14.01,2013-10-04 23:57:00,
2013-10-04 17:58:00,62.2,61.1,25.19,NE,39,0.0,0.0,96,0.00,,---,0.39,VWS V14.01,2013-10-04 23:58:00,
2013-10-04 18:00:00,62.2,61.1,25.19,NE,39,0.0,0.0,96,0.00,,---,0.39,VWS V14.01,2013-10-05 00:00:00,
2013-10-04 18:01:00,62.2,61.1,25.19,NE,39,0.0,0.0,96,0.00,,---,0.39,VWS V14.01,2013-10-05 00:01:00,
2013-10-04 18:03:00,62.2,61.1,25.19,NE,39,0.0,0.0,96,0.00,,---,0.39,VWS V14.01,2013-10-05 00:03:00,
2013-10-04 18:05:00,62.2,61.1,25.19,NE,39,0.0,0.0,96,0.00,,---,0.39,VWS V14.01,2013-10-05 00:05:00,
2013-10-04 18:07:00,62.2,61.1,25.19,NE,39,0.0,0.0,96,0.00,,---,0.39,VWS V14.01,2013-10-05 00:07:00,
2013-10-04 18:08:00,62.2,61.1,25.19,NE,39,0.0,0.0,96,0.00,,---,0.39,VWS V14.01,2013-10-05 00:08:00,
2013-10-04 18:12:00,62.2,61.1,25.19,NE,39,0.0,0.0,96,0.00,,---,0.39,VWS V14.01,2013-10-05 00:12:00,
2013-10-04 18:13:00,62.2,61.1,25.19,NE,39,0.0,0.0,96,0.00,,---,0.39,VWS V14.01,2013-10-05 00:13:00,
2013-10-04 18:14:00,62.2,61.1,25.19,NE,39,0.0,0.0,96,0.00,,---,0.39,VWS V14.01,2013-10-05 00:14:00,
2013-10-04 18:15:00,62.1,60.9,25.19,NE,39,0.0,0.0,96,0.00,,---,0.39,VWS V14.01,2013-10-05 00:15:00,
2013-10-04 18:17:00,62.1,60.9,25.19,NE,39,0.0,0.0,96,0.00,,---,0.39,VWS V14.01,2013-10-05 00:17:00,
2013-10-04 18:19:00,62.1,60.9,25.22,NE,39,0.0,0.0,96,0.00,,---,0.39,VWS V14.01,2013-10-05 00:19:00,
2013-10-04 18:21:00,62.1,60.9,25.22,NE,39,0.0,0.0,96,0.00,,---,0.39,VWS V14.01,2013-10-05 00:21:00,
2013-10-04 18:23:00,62.1,60.9,25.22,NE,39,0.0,0.0,96,0.00,,---,0.39,VWS V14.01,2013-10-05 00:23:00,
2013-10-04 18:26:00,62.1,60.9,25.22,NE,39,0.0,0.0,96,0.00,,---,0.39,VWS V14.01,2013-10-05 00:26:00,
2013-10-04 18:30:00,61.9,60.7,25.22,NE,39,0.0,0.0,96,0.00,,---,0.39,VWS V14.01,2013-10-05 00:30:00,
2013-10-04 18:31:00,61.9,60.7,25.22,NE,39,0.0,0.0,96,0.00,,---,0.39,VWS V14.01,2013-10-05 00:31:00,
2013-10-04 18:33:00,61.9,60.7,25.22,NE,39,0.0,0.0,96,0.00,,---,0.39,VWS V14.01,2013-10-05 00:33:00,
2013-10-04 18:34:00,61.9,60.7,25.22,NE,39,0.0,0.0,96,0.00,,---,0.39,VWS V14.01,2013-10-05 00:34:00,
2013-10-04 18:37:00,61.9,60.7,25.22,East,98,2.2,2.2,96,0.00,,---,0.39,VWS V14.01,2013-10-05 00:37:00,
2013-10-04 18:39:00,61.9,60.7,25.22,East,98,2.2,2.2,96,0.00,,---,0.39,VWS V14.01,2013-10-05 00:39:00,
2013-10-04 18:40:00,61.9,60.7,25.22,East,98,2.2,2.2,96,0.00,,---,0.39,VWS V14.01,2013-10-05 00:40:00,
2013-10-04 18:43:00,61.5,60.4,25.22,East,98,2.7,2.7,96,0.00,,---,0.39,VWS V14.01,2013-10-05 00:43:00,
2013-10-04 18:45:00,61.3,60.2,25.22,South,181,3.1,3.1,96,0.00,,---,0.39,VWS V14.01,2013-10-05 00:45:00,
2013-10-04 18:46:00,61.3,60.2,25.22,South,181,3.1,3.1,96,0.04,,---,0.43,VWS V14.01,2013-10-05 00:46:00,
2013-10-04 18:47:00,61.3,60.2,25.22,South,184,2.7,3.1,96,0.04,,---,0.43,VWS V14.01,2013-10-05 00:47:00,
2013-10-04 18:48:00,61.2,60.0,25.22,South,184,2.2,2.7,96,0.04,,---,0.43,VWS V14.01,2013-10-05 00:48:00,
2013-10-04 18:51:00,61.2,60.0,25.22,South,185,0.0,2.2,96,0.04,,---,0.43,VWS V14.01,2013-10-05 00:51:00,
2013-10-04 18:53:00,61.0,59.8,25.22,South,187,2.2,2.2,96,0.04,,---,0.43,VWS V14.01,2013-10-05 00:53:00,
2013-10-04 18:55:00,61.0,59.8,25.22,South,187,2.2,2.7,96,0.04,,---,0.43,VWS V14.01,2013-10-05 00:55:00,
2013-10-04 18:57:00,61.0,59.8,25.22,SW,221,0.0,0.0,96,0.04,,---,0.43,VWS V14.01,2013-10-05 00:57:00,
2013-10-04 18:58:00,61.0,59.8,25.22,SW,225,2.7,2.7,96,0.04,,---,0.43,VWS V14.01,2013-10-05 00:58:00,
2013-10-04 19:02:00,61.0,59.8,25.22,SW,216,2.2,2.7,96,0.04,,---,0.43,VWS V14.01,2013-10-05 01:02:00,
2013-10-04 19:03:00,61.0,59.8,25.22,SW,216,0.0,2.2,96,0.04,,---,0.43,VWS V14.01,2013-10-05 01:03:00,
2013-10-04 19:04:00,61.0,59.8,25.22,SW,216,0.0,0.0,96,0.04,,---,0.43,VWS V14.01,2013-10-05 01:04:00,
2013-10-04 19:05:00,61.0,59.8,25.22,SW,216,0.0,0.0,96,0.04,,---,0.43,VWS V14.01,2013-10-05 01:05:00,
2013-10-04 19:07:00,61.0,59.5,25.22,SW,216,0.0,0.0,95,0.04,,---,0.43,VWS V14.01,2013-10-05 01:07:00,
2013-10-04 19:11:00,60.8,59.4,25.22,SW,221,0.0,0.0,95,0.04,,---,0.43,VWS V14.01,2013-10-05 01:11:00,
2013-10-04 19:12:00,60.8,59.4,25.22,SW,220,0.0,0.0,95,0.04,,---,0.43,VWS V14.01,2013-10-05 01:12:00,
2013-10-04 19:13:00,60.8,59.4,25.22,SSW,199,2.7,2.7,95,0.04,,---,0.43,VWS V14.01,2013-10-05 01:13:00,
2013-10-04 19:14:00,60.8,59.4,25.22,South,175,2.7,2.7,95,0.04,,---,0.43,VWS V14.01,2013-10-05 01:14:00,
2013-10-04 19:17:00,60.6,59.2,25.22,South,184,0.0,0.0,95,0.04,,---,0.43,VWS V14.01,2013-10-05 01:17:00,
2013-10-04 19:18:00,60.6,59.2,25.22,South,184,0.0,0.0,95,0.04,,---,0.43,VWS V14.01,2013-10-05 01:18:00,
2013-10-04 19:20:00,60.6,59.2,25.22,SW,233,3.6,3.6,95,0.04,,---,0.43,VWS V14.01,2013-10-05 01:20:00,
2013-10-04 19:21:00,60.6,59.2,25.22,SW,233,3.6,3.6,95,0.04,,---,0.43,VWS V14.01,2013-10-05 01:21:00,
2013-10-04 19:23:00,60.6,59.2,25.22,WSW,249,2.7,3.6,95,0.04,,---,0.43,VWS V14.01,2013-10-05 01:23:00,
2013-10-04 19:24:00,60.6,59.2,25.22,SSW,208,3.6,3.6,95,0.04,,---,0.43,VWS V14.01,2013-10-05 01:24:00,
2013-10-04 19:25:00,60.8,58.8,25.22,SW,229,3.1,3.6,93,0.04,,---,0.43,VWS V14.01,2013-10-05 01:25:00,
2013-10-04 19:26:00,60.8,58.8,25.22,SW,229,3.1,3.1,93,0.04,,---,0.43,VWS V14.01,2013-10-05 01:26:00,
2013-10-04 19:30:00,61.0,58.0,25.22,South,191,4.9,4.9,90,0.04,,---,0.43,VWS V14.01,2013-10-05 01:30:00,
2013-10-04 19:31:00,61.3,57.4,25.22,SSW,200,2.7,4.9,87,0.04,,---,0.43,VWS V14.01,2013-10-05 01:31:00,
2013-10-04 19:32:00,61.3,57.4,25.22,SSW,200,2.7,2.7,87,0.04,,---,0.43,VWS V14.01,2013-10-05 01:32:00,
2013-10-04 19:33:00,61.3,57.4,25.22,SSW,198,2.7,2.7,87,0.04,,---,0.43,VWS V14.01,2013-10-05 01:33:00,
2013-10-04 19:35:00,61.3,56.5,25.22,SSW,213,3.6,3.6,84,0.04,,---,0.43,VWS V14.01,2013-10-05 01:35:00,
2013-10-04 19:36:00,61.3,56.5,25.22,SSW,202,4.0,4.0,84,0.04,,---,0.43,VWS V14.01,2013-10-05 01:36:00,
2013-10-04 19:38:00,61.3,56.1,25.22,SSW,198,2.2,3.1,83,0.04,,---,0.43,VWS V14.01,2013-10-05 01:38:00,
2013-10-04 19:39:00,61.3,56.1,25.22,SE,141,3.1,3.1,83,0.04,,---,0.43,VWS V14.01,2013-10-05 01:39:00,
2013-10-04 19:42:00,61.2,56.6,25.22,South,178,3.6,3.6,85,0.04,,---,0.43,VWS V14.01,2013-10-05 01:42:00,
2013-10-04 19:45:00,61.2,56.6,25.22,SSW,204,0.0,2.7,85,0.04,,---,0.43,VWS V14.01,2013-10-05 01:45:00,
2013-10-04 19:47:00,61.0,56.1,25.22,SSW,204,0.0,0.0,84,0.00,,---,0.43,VWS V14.01,2013-10-05 01:47:00,
2013-10-04 19:50:00,61.2,56.0,25.22,SSW,198,0.0,0.0,83,0.00,,---,0.43,VWS V14.01,2013-10-05 01:50:00,
2013-10-04 19:51:00,61.2,56.0,25.22,SSW,198,0.0,0.0,83,0.00,,---,0.43,VWS V14.01,2013-10-05 01:51:00,
2013-10-04 19:53:00,61.2,56.0,25.22,SSW,196,4.0,4.0,83,0.00,,---,0.43,VWS V14.01,2013-10-05 01:53:00,
2013-10-04 19:55:00,61.0,55.8,25.22,SSW,196,2.2,4.0,83,0.00,,---,0.43,VWS V14.01,2013-10-05 01:55:00,
2013-10-04 19:56:00,61.0,55.8,25.22,SSW,196,0.0,2.2,83,0.00,,---,0.43,VWS V14.01,2013-10-05 01:56:00,
2013-10-04 19:58:00,61.0,55.8,25.22,SSW,198,2.2,2.7,83,0.00,,---,0.43,VWS V14.01,2013-10-05 01:58:00,
2013-10-04 20:01:00,61.0,56.1,25.22,SSW,209,0.0,0.0,84,0.00,,---,0.43,VWS V14.01,2013-10-05 02:01:00,
2013-10-04 20:02:00,61.0,56.1,25.22,SSW,209,0.0,0.0,84,0.00,,---,0.43,VWS V14.01,2013-10-05 02:02:00,
2013-10-04 20:03:00,61.0,56.1,25.22,SSW,209,0.0,0.0,84,0.00,,---,0.43,VWS V14.01,2013-10-05 02:03:00,
2013-10-04 20:04:00,61.0,56.1,25.22,South,189,0.0,0.0,84,0.00,,---,0.43,VWS V14.01,2013-10-05 02:04:00,
2013-10-04 20:07:00,61.0,56.1,25.22,South,191,0.0,2.2,84,0.00,,---,0.43,VWS V14.01,2013-10-05 02:07:00,
2013-10-04 20:09:00,60.8,56.3,25.22,South,181,2.7,2.7,85,0.00,,---,0.43,VWS V14.01,2013-10-05 02:09:00,
2013-10-04 20:10:00,60.8,56.3,25.22,South,181,2.7,2.7,85,0.00,,---,0.43,VWS V14.01,2013-10-05 02:10:00,
2013-10-04 20:11:00,60.8,56.3,25.22,South,181,0.0,2.7,85,0.00,,---,0.43,VWS V14.01,2013-10-05 02:11:00,
2013-10-04 20:12:00,60.8,56.3,25.22,South,181,0.0,0.0,85,0.00,,---,0.43,VWS V14.01,2013-10-05 02:12:00,
2013-10-04 20:14:00,60.8,56.3,25.22,South,181,0.0,0.0,85,0.00,,---,0.43,VWS V14.01,2013-10-05 02:14:00,
2013-10-04 20:15:00,60.6,56.4,25.22,SSE,148,2.7,2.7,86,0.00,,---,0.43,VWS V14.01,2013-10-05 02:15:00,
2013-10-04 20:17:00,60.6,56.4,25.22,SSE,148,2.7,2.7,86,0.00,,---,0.43,VWS V14.01,2013-10-05 02:17:00,
2013-10-04 20:20:00,60.6,56.4,25.25,SSW,207,2.7,2.7,86,0.00,,---,0.43,VWS V14.01,2013-10-05 02:20:00,
2013-10-04 20:21:00,60.6,56.4,25.25,SW,221,2.7,2.7,86,0.00,,---,0.43,VWS V14.01,2013-10-05 02:21:00,
2013-10-04 20:22:00,60.6,56.4,25.25,South,169,3.6,3.6,86,0.00,,---,0.43,VWS V14.01,2013-10-05 02:22:00,
2013-10-04 20:23:00,60.6,56.7,25.25,South,169,3.6,3.6,87,0.00,,---,0.43,VWS V14.01,2013-10-05 02:23:00,
2013-10-04 20:25:00,60.8,56.6,25.25,South,169,3.6,3.6,86,0.00,,---,0.43,VWS V14.01,2013-10-05 02:25:00,
2013-10-04 20:27:00,60.8,56.6,25.25,SW,233,2.7,2.7,86,0.00,,---,0.43,VWS V14.01,2013-10-05 02:27:00,
2013-10-04 20:28:00,60.8,56.6,25.25,SW,226,2.7,2.7,86,0.00,,---,0.43,VWS V14.01,2013-10-05 02:28:00,
2013-10-04 20:29:00,60.6,56.7,25.25,SW,224,2.7,2.7,87,0.00,,---,0.43,VWS V14.01,2013-10-05 02:29:00,
2013-10-04 20:33:00,60.6,56.7,25.25,SW,216,2.7,2.7,87,0.00,,---,0.43,VWS V14.01,2013-10-05 02:33:00,
2013-10-04 20:34:00,60.6,56.7,25.25,SW,216,2.7,2.7,87,0.00,,---,0.43,VWS V14.01,2013-10-05 02:34:00,
2013-10-04 20:37:00,60.6,56.7,25.25,SW,221,2.2,4.0,87,0.00,,---,0.43,VWS V14.01,2013-10-05 02:37:00,
2013-10-04 20:38:00,60.6,56.4,25.25,SW,221,2.2,2.2,86,0.00,,---,0.43,VWS V14.01,2013-10-05 02:38:00,
2013-10-04 20:39:00,60.6,56.4,25.25,South,179,2.2,2.2,86,0.00,,---,0.43,VWS V14.01,2013-10-05 02:39:00,
2013-10-04 20:42:00,60.6,56.4,25.25,South,175,2.7,2.7,86,0.00,,---,0.43,VWS V14.01,2013-10-05 02:42:00,
2013-10-04 20:44:00,60.4,56.6,25.25,SSE,152,2.7,3.1,87,0.00,,---,0.43,VWS V14.01,2013-10-05 02:44:00,
2013-10-04 20:45:00,60.4,56.6,25.25,SSE,152,2.7,2.7,87,0.00,,---,0.43,VWS V14.01,2013-10-05 02:45:00,
2013-10-04 20:46:00,60.4,56.6,25.25,SSE,152,2.7,2.7,87,0.00,,---,0.43,VWS V14.01,2013-10-05 02:46:00,
2013-10-04 20:48:00,60.4,56.6,25.25,South,191,2.7,2.7,87,0.00,,---,0.43,VWS V14.01,2013-10-05 02:48:00,
2013-10-04 20:51:00,60.3,56.4,25.25,SSW,192,2.7,3.1,87,0.00,,---,0.43,VWS V14.01,2013-10-05 02:51:00,
2013-10-04 20:54:00,60.3,56.4,25.25,SSW,202,2.7,2.7,87,0.00,,---,0.43,VWS V14.01,2013-10-05 02:54:00,
2013-10-04 20:55:00,60.3,56.4,25.25,SSW,202,2.7,2.7,87,0.00,,---,0.43,VWS V14.01,2013-10-05 02:55:00,
2013-10-04 21:00:00,60.3,56.4,25.25,SSW,205,4.0,4.0,87,0.00,,---,0.43,VWS V14.01,2013-10-05 03:00:00,
2013-10-04 21:01:00,60.3,56.4,25.25,SSW,205,0.0,4.0,87,0.00,,---,0.43,VWS V14.01,2013-10-05 03:01:00,
2013-10-04 21:02:00,60.3,56.4,25.25,SSW,205,0.0,0.0,87,0.00,,---,0.43,VWS V14.01,2013-10-05 03:02:00,
2013-10-04 21:03:00,60.3,56.4,25.25,SSW,205,0.0,0.0,87,0.00,,---,0.43,VWS V14.01,2013-10-05 03:03:00,
2013-10-04 21:05:00,60.3,56.4,25.25,SSW,205,0.0,0.0,87,0.00,,---,0.43,VWS V14.01,2013-10-05 03:05:00,
2013-10-04 21:07:00,60.1,56.5,25.25,SSE,160,2.2,2.7,88,0.00,,---,0.43,VWS V14.01,2013-10-05 03:07:00,
2013-10-04 21:10:00,60.1,56.5,25.25,SSE,157,3.1,3.1,88,0.00,,---,0.43,VWS V14.01,2013-10-05 03:10:00,
2013-10-04 21:12:00,60.1,56.5,25.25,SSE,157,3.1,3.1,88,0.00,,---,0.43,VWS V14.01,2013-10-05 03:12:00,
2013-10-04 21:14:00,60.1,56.5,25.25,SE,137,3.1,3.1,88,0.00,,---,0.43,VWS V14.01,2013-10-05 03:14:00,
2013-10-04 21:15:00,60.1,56.5,25.25,South,190,3.6,3.6,88,0.00,,---,0.43,VWS V14.01,2013-10-05 03:15:00,
2013-10-04 21:16:00,60.1,56.5,25.25,South,190,0.0,3.6,88,0.00,,---,0.43,VWS V14.01,2013-10-05 03:16:00,
2013-10-04 21:17:00,60.3,57.0,25.25,South,190,2.2,2.2,89,0.00,,---,0.43,VWS V14.01,2013-10-05 03:17:00,
2013-10-04 21:19:00,60.1,56.8,25.25,East,95,3.6,3.6,89,0.00,,---,0.43,VWS V14.01,2013-10-05 03:19:00,
2013-10-04 21:20:00,60.1,56.8,25.25,East,95,3.6,3.6,89,0.00,,---,0.43,VWS V14.01,2013-10-05 03:20:00,
2013-10-04 21:22:00,60.1,56.8,25.25,SSE,168,2.7,2.7,89,0.00,,---,0.43,VWS V14.01,2013-10-05 03:22:00,
2013-10-04 21:25:00,60.1,56.8,25.25,SSW,195,2.7,2.7,89,0.00,,---,0.43,VWS V14.01,2013-10-05 03:25:00,
2013-10-04 21:26:00,60.3,57.0,25.25,SSW,195,2.7,2.7,89,0.00,,---,0.43,VWS V14.01,2013-10-05 03:26:00,
2013-10-04 21:27:00,60.3,57.0,25.25,South,191,2.7,2.7,89,0.00,,---,0.43,VWS V14.01,2013-10-05 03:27:00,
2013-10-04 21:28:00,60.3,57.0,25.25,South,191,2.7,2.7,89,0.00,,---,0.43,VWS V14.01,2013-10-05 03:28:00,
2013-10-04 21:32:00,60.3,57.0,25.25,SSW,200,3.6,3.6,89,0.00,,---,0.43,VWS V14.01,2013-10-05 03:32:00,
2013-10-04 21:33:00,60.3,57.0,25.25,SSW,201,0.0,3.6,89,0.00,,---,0.43,VWS V14.01,2013-10-05 03:33:00,
2013-10-04 21:34:00,60.3,57.0,25.25,SSW,201,0.0,0.0,89,0.00,,---,0.43,VWS V14.01,2013-10-05 03:34:00,
2013-10-04 21:35:00,60.3,57.0,25.25,SSW,201,0.0,0.0,89,0.00,,---,0.43,VWS V14.01,2013-10-05 03:35:00,
2013-10-04 21:36:00,60.4,57.2,25.25,SSW,201,2.7,2.7,89,0.00,,---,0.43,VWS V14.01,2013-10-05 03:36:00,
2013-10-04 21:38:00,60.4,57.2,25.25,SSW,201,2.7,2.7,89,0.00,,---,0.43,VWS V14.01,2013-10-05 03:38:00,
2013-10-04 21:41:00,60.6,57.4,25.25,South,191,3.1,3.1,89,0.00,,---,0.43,VWS V14.01,2013-10-05 03:41:00,
2013-10-04 21:44:00,60.6,57.4,25.25,South,191,0.0,0.0,89,0.00,,---,0.43,VWS V14.01,2013-10-05 03:44:00,
2013-10-04 21:45:00,60.8,57.5,25.25,South,191,0.0,0.0,89,0.00,,---,0.43,VWS V14.01,2013-10-05 03:45:00,
2013-10-04 21:48:00,61.0,57.4,25.25,SSW,195,0.0,0.0,88,0.00,,---,0.43,VWS V14.01,2013-10-05 03:48:00,
2013-10-04 21:51:00,61.0,57.4,25.25,SSW,195,0.0,0.0,88,0.00,,---,0.43,VWS V14.01,2013-10-05 03:51:00,
2013-10-04 21:53:00,61.2,57.3,25.25,South,191,0.0,0.0,87,0.00,,---,0.43,VWS V14.01,2013-10-05 03:53:00,
2013-10-04 21:55:00,61.2,57.3,25.25,SSW,194,3.6,3.6,87,0.00,,---,0.43,VWS V14.01,2013-10-05 03:55:00,
2013-10-04 21:57:00,61.5,57.3,25.25,SSW,192,2.7,2.7,86,0.00,,---,0.43,VWS V14.01,2013-10-05 03:57:00,
2013-10-04 21:58:00,61.5,57.0,25.25,SSW,192,2.7,2.7,85,0.00,,---,0.43,VWS V14.01,2013-10-05 03:58:00,
2013-10-04 21:59:00,61.7,56.8,25.25,SSW,194,2.7,2.7,84,0.00,,---,0.43,VWS V14.01,2013-10-05 03:59:00,
2013-10-04 22:01:00,61.9,57.0,25.25,SSW,194,0.0,2.7,84,0.00,,---,0.43,VWS V14.01,2013-10-05 04:01:00,
2013-10-04 22:02:00,61.9,56.7,25.25,SSW,194,0.0,0.0,83,0.00,,---,0.43,VWS V14.01,2013-10-05 04:02:00,
2013-10-04 22:03:00,61.9,56.7,25.25,SSW,194,0.0,0.0,83,0.00,,---,0.43,VWS V14.01,2013-10-05 04:03:00,
2013-10-04 22:04:00,61.9,56.7,25.25,South,183,2.7,2.7,83,0.00,,---,0.43,VWS V14.01,2013-10-05 04:04:00,
2013-10-04 22:05:00,61.9,56.3,25.25,South,183,2.7,2.7,82,0.00,,---,0.43,VWS V14.01,2013-10-05 04:05:00,
2013-10-04 22:08:00,61.9,56.3,25.25,South,180,0.0,2.7,82,0.00,,---,0.43,VWS V14.01,2013-10-05 04:08:00,
2013-10-04 22:09:00,61.9,56.0,25.25,South,180,0.0,0.0,81,0.00,,---,0.43,VWS V14.01,2013-10-05 04:09:00,
2013-10-04 22:11:00,61.9,56.0,25.25,South,181,0.0,0.0,81,0.00,,---,0.43,VWS V14.01,2013-10-05 04:11:00,
2013-10-04 22:13:00,61.9,56.0,25.25,South,191,0.0,0.0,81,0.00,,---,0.43,VWS V14.01,2013-10-05 04:13:00,
2013-10-04 22:14:00,61.7,55.8,25.25,WSW,245,3.6,3.6,81,0.00,,---,0.43,VWS V14.01,2013-10-05 04:14:00,
2013-10-04 22:16:00,61.7,55.8,25.25,WSW,245,3.6,3.6,81,0.00,,---,0.43,VWS V14.01,2013-10-05 04:16:00,
2013-10-04 22:18:00,61.5,55.6,25.25,West,262,2.2,2.2,81,0.00,,---,0.43,VWS V14.01,2013-10-05 04:18:00,
2013-10-04 22:20:00,61.5,55.6,25.25,West,262,2.2,2.2,81,0.00,,---,0.43,VWS V14.01,2013-10-05 04:20:00,
2013-10-04 22:22:00,61.5,55.3,25.25,SSW,200,2.7,2.7,80,0.00,,---,0.43,VWS V14.01,2013-10-05 04:22:00,
2013-10-04 22:23:00,61.5,55.3,25.25,SSW,200,2.7,2.7,80,0.00,,---,0.43,VWS V14.01,2013-10-05 04:23:00,
2013-10-04 22:27:00,61.5,55.3,25.25,SSW,200,0.0,0.0,80,0.00,,---,0.43,VWS V14.01,2013-10-05 04:27:00,
2013-10-04 22:28:00,61.3,55.1,25.25,SSW,200,0.0,0.0,80,0.00,,---,0.43,VWS V14.01,2013-10-05 04:28:00,
2013-10-04 22:29:00,61.3,55.1,25.25,SSW,196,0.0,0.0,80,0.00,,---,0.43,VWS V14.01,2013-10-05 04:29:00,
2013-10-04 22:31:00,61.2,55.0,25.25,SSW,196,0.0,0.0,80,0.00,,---,0.43,VWS V14.01,2013-10-05 04:31:00,
2013-10-04 22:34:00,61.0,55.1,25.25,SSW,194,0.0,0.0,81,0.00,,---,0.43,VWS V14.01,2013-10-05 04:34:00,
2013-10-04 22:35:00,61.0,55.1,25.25,SSW,194,0.0,0.0,81,0.00,,---,0.43,VWS V14.01,2013-10-05 04:35:00,
2013-10-04 22:36:00,61.0,55.1,25.25,SSW,194,0.0,0.0,81,0.00,,---,0.43,VWS V14.01,2013-10-05 04:36:00,
2013-10-04 22:38:00,61.0,55.1,25.25,SSW,194,0.0,0.0,81,0.00,,---,0.43,VWS V14.01,2013-10-05 04:38:00,
2013-10-04 22:39:00,60.8,55.3,25.25,SSW,194,0.0,0.0,82,0.00,,---,0.43,VWS V14.01,2013-10-05 04:39:00,
2013-10-04 22:41:00,60.8,55.3,25.25,SSW,213,2.7,2.7,82,0.00,,---,0.43,VWS V14.01,2013-10-05 04:41:00,
2013-10-04 22:43:00,61.0,55.5,25.25,SSW,213,2.2,2.2,82,0.00,,---,0.43,VWS V14.01,2013-10-05 04:43:00,
2013-10-04 22:44:00,61.0,55.5,25.25,SSE,165,2.2,2.2,82,0.00,,---,0.43,VWS V14.01,2013-10-05 04:44:00,
2013-10-04 22:45:00,61.0,55.5,25.25,SSE,165,0.0,2.2,82,0.00,,---,0.43,VWS V14.01,2013-10-05 04:45:00,
2013-10-04 22:46:00,61.0,55.5,25.25,South,176,2.2,3.6,82,0.00,,---,0.43,VWS V14.01,2013-10-05 04:46:00,
2013-10-04 22:48:00,61.0,55.8,25.25,South,176,2.2,2.2,83,0.00,,---,0.43,VWS V14.01,2013-10-05 04:48:00,
2013-10-04 22:49:00,61.0,55.8,25.25,South,177,2.7,2.7,83,0.00,,---,0.43,VWS V14.01,2013-10-05 04:49:00,
2013-10-04 22:51:00,61.0,55.8,25.25,South,190,2.7,2.7,83,0.00,,---,0.43,VWS V14.01,2013-10-05 04:51:00,
2013-10-04 22:53:00,60.8,55.6,25.25,South,187,2.7,2.7,83,0.00,,---,0.43,VWS V14.01,2013-10-05 04:53:00,
2013-10-04 22:54:00,61.0,56.1,25.25,South,187,2.7,2.7,84,0.00,,---,0.43,VWS V14.01,2013-10-05 04:54:00,
2013-10-04 22:58:00,61.0,56.1,25.25,South,181,2.7,2.7,84,0.00,,---,0.43,VWS V14.01,2013-10-05 04:58:00,
2013-10-04 22:59:00,61.0,56.1,25.25,SSW,197,2.7,2.7,84,0.00,,---,0.43,VWS V14.01,2013-10-05 04:59:00,
2013-10-04 23:00:00,61.0,56.1,25.25,SW,214,4.0,4.0,84,0.00,,---,0.43,VWS V14.01,2013-10-05 05:00:00,
2013-10-04 23:01:00,61.0,56.1,25.25,SW,214,4.0,4.0,84,0.00,,---,0.43,VWS V14.01,2013-10-05 05:01:00,
2013-10-04 23:02:00,61.0,56.1,25.25,SSW,195,2.7,4.0,84,0.00,,---,0.43,VWS V14.01,2013-10-05 05:02:00,
2013-10-04 23:04:00,61.0,56.5,25.25,SSW,194,2.7,2.7,85,0.00,,---,0.43,VWS V14.01,2013-10-05 05:04:00,
2013-10-04 23:05:00,61.0,56.5,25.25,SSW,203,2.2,2.7,85,0.00,,---,0.43,VWS V14.01,2013-10-05 05:05:00,
2013-10-04 23:09:00,61.0,56.8,25.25,SE,131,0.0,0.0,86,0.00,,---,0.43,VWS V14.01,2013-10-05 05:09:00,
2013-10-04 23:11:00,61.0,56.8,25.25,South,187,0.0,0.0,86,0.00,,---,0.43,VWS V14.01,2013-10-05 05:11:00,
2013-10-04 23:14:00,61.2,57.0,25.25,SE,142,4.9,4.9,86,0.00,,---,0.43,VWS V14.01,2013-10-05 05:14:00,
2013-10-04 23:15:00,61.5,57.3,25.25,SE,142,4.9,4.9,86,0.00,,---,0.43,VWS V14.01,2013-10-05 05:15:00,
2013-10-04 23:18:00,61.7,57.5,25.25,SSW,196,2.7,2.7,86,0.00,,---,0.43,VWS V14.01,2013-10-05 05:18:00,
2013-10-04 23:20:00,61.7,57.2,25.25,SSW,196,2.7,2.7,85,0.00,,---,0.43,VWS V14.01,2013-10-05 05:20:00,
2013-10-04 23:23:00,61.7,57.2,25.25,SSW,197,0.0,0.0,85,0.00,,---,0.43,VWS V14.01,2013-10-05 05:23:00,
2013-10-04 23:24:00,61.7,57.2,25.25,SSW,195,0.0,0.0,85,0.00,,---,0.43,VWS V14.01,2013-10-05 05:24:00,
2013-10-04 23:26:00,61.7,56.8,25.25,SSW,198,0.0,0.0,84,0.00,,---,0.43,VWS V14.01,2013-10-05 05:26:00,
2013-10-04 23:27:00,61.7,56.8,25.25,SSW,198,0.0,0.0,84,0.00,,---,0.43,VWS V14.01,2013-10-05 05:27:00,
2013-10-04 23:32:00,61.7,56.8,25.25,SSW,197,2.7,2.7,84,0.00,,---,0.43,VWS V14.01,2013-10-05 05:32:00,
2013-10-04 23:33:00,61.7,56.8,25.25,SSE,151,2.2,2.7,84,0.00,,---,0.43,VWS V14.01,2013-10-05 05:33:00,
2013-10-04 23:35:00,61.7,56.8,25.25,SSE,160,0.0,2.2,84,0.00,,---,0.43,VWS V14.01,2013-10-05 05:35:00,
2013-10-04 23:36:00,61.9,57.0,25.25,SSE,160,0.0,0.0,84,0.00,,---,0.43,VWS V14.01,2013-10-05 05:36:00,
2013-10-04 23:37:00,61.9,57.0,25.25,SSE,153,2.7,2.7,84,0.00,,---,0.43,VWS V14.01,2013-10-05 05:37:00,
2013-10-04 23:38:00,61.9,57.0,25.25,South,176,0.0,2.7,84,0.00,,---,0.43,VWS V14.01,2013-10-05 05:38:00,
2013-10-04 23:41:00,61.9,57.0,25.25,East,89,3.1,3.1,84,0.00,,---,0.43,VWS V14.01,2013-10-05 05:41:00,
2013-10-04 23:43:00,61.9,56.7,25.25,ESE,102,2.2,2.2,83,0.00,,---,0.43,VWS V14.01,2013-10-05 05:43:00,
2013-10-04 23:45:00,61.9,56.7,25.25,SE,129,3.1,3.1,83,0.00,,---,0.43,VWS V14.01,2013-10-05 05:45:00,
2013-10-04 23:47:00,62.1,56.8,25.25,SSE,152,2.2,2.2,83,0.00,,---,0.43,VWS V14.01,2013-10-05 05:47:00,
2013-10-04 23:48:00,62.1,56.8,25.25,SSE,152,3.6,4.0,83,0.00,,---,0.43,VWS V14.01,2013-10-05 05:48:00,
2013-10-04 23:49:00,62.4,56.9,25.25,SE,145,3.6,3.6,82,0.00,,---,0.43,VWS V14.01,2013-10-05 05:49:00,
2013-10-04 23:50:00,62.4,56.9,25.25,SSE,159,3.1,3.6,82,0.00,,---,0.43,VWS V14.01,2013-10-05 05:50:00,
2013-10-04 23:51:00,62.4,56.9,25.25,SSW,210,2.7,3.1,82,0.00,,---,0.43,VWS V14.01,2013-10-05 05:51:00,
2013-10-04 23:52:00,62.8,56.5,25.25,ESE,122,2.7,2.7,80,0.00,,---,0.43,VWS V14.01,2013-10-05 05:52:00,
2013-10-04 23:56:00,63.0,56.0,25.25,SSE,153,0.0,2.7,78,0.00,,---,0.43,VWS V14.01,2013-10-05 05:56:00,
2013-10-04 23:57:00,63.0,55.7,25.25,SSE,153,0.0,0.0,77,0.00,,---,0.43,VWS V14.01,2013-10-05 05:57:00,
2013-10-04 23:58:00,62.8,55.5,25.25,SSE,153,0.0,0.0,77,0.00,,---,0.43,VWS V14.01,2013-10-05 05:58:00,